Wetterdaten: Samstag, 07.02.2026
Datum Zeit Temp. Aussen Temp. o. S. Temp +5cm Feuchte Auss Luftdruck Regen Sonnenschein Regendauer Solar Windböen Empfang
07.02.2026 00:00 6,1 °C 5,6 °C 1,7 °C 97 % 997,7 hPa 0,0 l/m² 0 min 0 min 0 W/m² 12,9 km/h (3 Bft) 100,00 %
07.02.2026 00:02 6,1 °C 5,6 °C 1,7 °C 97 % 997,8 hPa 0,0 l/m² 0 min 0 min 0 W/m² 16,1 km/h (3 Bft) 94,44 %
07.02.2026 00:04 6,1 °C 5,0 °C 1,7 °C 97 % 997,8 hPa 0,0 l/m² 0 min 0 min 0 W/m² 12,9 km/h (3 Bft) 100,00 %
07.02.2026 00:07 6,1 °C 5,0 °C 1,7 °C 97 % 997,9 hPa 0,0 l/m² 0 min 0 min 0 W/m² 9,7 km/h (2 Bft) 97,47 %
07.02.2026 00:08 6,1 °C 5,0 °C 1,7 °C 97 % 997,9 hPa 0,0 l/m² 0 min 0 min 0 W/m² 6,4 km/h (2 Bft) 96,00 %
07.02.2026 00:10 6,1 °C 5,0 °C 1,7 °C 97 % 997,9 hPa 0,0 l/m² 0 min 0 min 0 W/m² 6,4 km/h (2 Bft) 97,83 %
07.02.2026 00:12 6,1 °C 5,0 °C 1,7 °C 97 % 997,9 hPa 0,0 l/m² 0 min 0 min 0 W/m² 12,9 km/h (3 Bft) 100,00 %
07.02.2026 00:14 6,1 °C 5,0 °C 1,7 °C 97 % 998,0 hPa 0,0 l/m² 0 min 0 min 0 W/m² 12,9 km/h (3 Bft) 97,87 %
07.02.2026 00:16 6,1 °C 5,0 °C 1,7 °C 97 % 998,0 hPa 0,0 l/m² 0 min 0 min 0 W/m² 6,4 km/h (2 Bft) 97,87 %
07.02.2026 00:18 6,1 °C 5,0 °C 1,7 °C 97 % 998,0 hPa 0,0 l/m² 0 min 0 min 0 W/m² 6,4 km/h (2 Bft) 100,00 %
07.02.2026 00:20 6,0 °C 5,0 °C 1,7 °C 97 % 998,0 hPa 0,0 l/m² 0 min 0 min 0 W/m² 6,4 km/h (2 Bft) 97,87 %
07.02.2026 00:22 6,0 °C 5,0 °C 1,7 °C 97 % 998,0 hPa 0,0 l/m² 0 min 0 min 0 W/m² 6,4 km/h (2 Bft) 97,83 %
07.02.2026 00:24 5,9 °C 5,0 °C 1,7 °C 97 % 998,0 hPa 0,0 l/m² 0 min 0 min 0 W/m² 6,4 km/h (2 Bft) 100,00 %
07.02.2026 00:26 5,9 °C 5,0 °C 1,7 °C 97 % 998,0 hPa 0,0 l/m² 0 min 0 min 0 W/m² 12,9 km/h (3 Bft) 95,74 %
07.02.2026 00:28 5,9 °C 5,0 °C 1,7 °C 97 % 998,0 hPa 0,0 l/m² 0 min 0 min 0 W/m² 6,4 km/h (2 Bft) 95,74 %
07.02.2026 00:30 5,9 °C 5,0 °C 1,7 °C 97 % 998,1 hPa 0,0 l/m² 0 min 0 min 0 W/m² 6,4 km/h (2 Bft) 97,87 %
07.02.2026 00:32 5,9 °C 5,0 °C 1,1 °C 97 % 998,1 hPa 0,0 l/m² 0 min 0 min 0 W/m² 3,2 km/h (1 Bft) 97,87 %
07.02.2026 00:34 5,8 °C 5,0 °C 1,1 °C 97 % 998,1 hPa 0,0 l/m² 0 min 0 min 0 W/m² 6,4 km/h (2 Bft) 97,83 %
07.02.2026 00:36 5,8 °C 5,0 °C 1,1 °C 97 % 998,2 hPa 0,0 l/m² 0 min 0 min 0 W/m² 6,4 km/h (2 Bft) 95,74 %
07.02.2026 00:38 5,8 °C 5,0 °C 1,1 °C 97 % 998,1 hPa 0,0 l/m² 0 min 0 min 0 W/m² 12,9 km/h (3 Bft) 97,87 %
07.02.2026 00:40 5,8 °C 5,0 °C 1,1 °C 97 % 998,2 hPa 0,0 l/m² 0 min 0 min 0 W/m² 6,4 km/h (2 Bft) 97,87 %
07.02.2026 00:42 5,8 °C 5,0 °C 1,1 °C 97 % 998,2 hPa 0,0 l/m² 0 min 0 min 0 W/m² 6,4 km/h (2 Bft) 97,14 %
07.02.2026 00:44 5,7 °C 5,0 °C 1,1 °C 97 % 998,2 hPa 0,0 l/m² 0 min 0 min 0 W/m² 3,2 km/h (1 Bft) 96,67 %
07.02.2026 00:46 5,7 °C 5,0 °C 1,1 °C 97 % 998,2 hPa 0,0 l/m² 0 min 0 min 0 W/m² 6,4 km/h (2 Bft) 97,87 %
07.02.2026 00:48 5,7 °C 5,0 °C 1,7 °C 97 % 998,3 hPa 0,0 l/m² 0 min 0 min 0 W/m² 6,4 km/h (2 Bft) 97,87 %
07.02.2026 00:50 5,7 °C 5,0 °C 1,7 °C 97 % 998,3 hPa 0,0 l/m² 0 min 0 min 0 W/m² 6,4 km/h (2 Bft) 97,83 %
07.02.2026 00:52 5,7 °C 5,0 °C 1,7 °C 97 % 998,4 hPa 0,0 l/m² 0 min 0 min 0 W/m² 6,4 km/h (2 Bft) 95,74 %
07.02.2026 00:54 5,7 °C 5,0 °C 1,7 °C 97 % 998,4 hPa 0,0 l/m² 0 min 0 min 0 W/m² 6,4 km/h (2 Bft) 97,87 %
07.02.2026 00:56 5,7 °C 5,0 °C 1,7 °C 97 % 998,4 hPa 0,0 l/m² 0 min 0 min 0 W/m² 6,4 km/h (2 Bft) 95,74 %
07.02.2026 00:58 5,7 °C 5,0 °C 1,7 °C 97 % 998,4 hPa 0,0 l/m² 0 min 0 min 0 W/m² 6,4 km/h (2 Bft) 93,62 %
07.02.2026 01:00 5,7 °C 5,0 °C 1,7 °C 97 % 998,3 hPa 0,0 l/m² 0 min 0 min 0 W/m² 3,2 km/h (1 Bft) 93,62 %
07.02.2026 01:02 5,7 °C 5,0 °C 1,7 °C 97 % 998,4 hPa 0,0 l/m² 0 min 0 min 0 W/m² 6,4 km/h (2 Bft) 95,65 %
07.02.2026 01:04 5,7 °C 5,0 °C 1,7 °C 97 % 998,4 hPa 0,0 l/m² 0 min 0 min 0 W/m² 6,4 km/h (2 Bft) 95,83 %
07.02.2026 01:06 5,7 °C 5,0 °C 1,7 °C 97 % 998,5 hPa 0,0 l/m² 0 min 0 min 0 W/m² 6,4 km/h (2 Bft) 93,62 %
07.02.2026 01:08 5,7 °C 5,0 °C 1,7 °C 97 % 998,4 hPa 0,0 l/m² 0 min 0 min 0 W/m² 12,9 km/h (3 Bft) 93,62 %
07.02.2026 01:10 5,7 °C 5,0 °C 1,7 °C 97 % 998,4 hPa 0,0 l/m² 0 min 0 min 0 W/m² 3,2 km/h (1 Bft) 95,74 %
07.02.2026 01:12 5,7 °C 5,0 °C 1,7 °C 97 % 998,5 hPa 0,0 l/m² 0 min 0 min 0 W/m² 9,7 km/h (2 Bft) 95,74 %
07.02.2026 01:14 5,7 °C 5,0 °C 1,7 °C 97 % 998,5 hPa 0,0 l/m² 0 min 0 min 0 W/m² 12,9 km/h (3 Bft) 95,65 %
07.02.2026 01:16 5,7 °C 5,0 °C 1,7 °C 97 % 998,5 hPa 0,0 l/m² 0 min 0 min 0 W/m² 6,4 km/h (2 Bft) 97,87 %
07.02.2026 01:18 5,7 °C 5,0 °C 1,7 °C 97 % 998,5 hPa 0,0 l/m² 0 min 0 min 0 W/m² 6,4 km/h (2 Bft) 97,87 %
07.02.2026 01:20 5,7 °C 5,0 °C 1,7 °C 97 % 998,5 hPa 0,0 l/m² 0 min 0 min 0 W/m² 6,4 km/h (2 Bft) 93,62 %
07.02.2026 01:22 5,7 °C 5,0 °C 1,7 °C 97 % 998,5 hPa 0,0 l/m² 0 min 0 min 0 W/m² 3,2 km/h (1 Bft) 93,62 %
07.02.2026 01:24 5,7 °C 5,0 °C 1,7 °C 97 % 998,5 hPa 0,0 l/m² 0 min 0 min 0 W/m² 6,4 km/h (2 Bft) 97,87 %
07.02.2026 01:26 5,7 °C 5,0 °C 1,7 °C 97 % 998,5 hPa 0,0 l/m² 0 min 0 min 0 W/m² 6,4 km/h (2 Bft) 95,65 %
07.02.2026 01:28 5,7 °C 5,0 °C 1,7 °C 97 % 998,5 hPa 0,0 l/m² 0 min 0 min 0 W/m² 6,4 km/h (2 Bft) 100,00 %
07.02.2026 01:30 5,7 °C 5,0 °C 1,7 °C 97 % 998,6 hPa 0,0 l/m² 0 min 0 min 0 W/m² 3,2 km/h (1 Bft) 95,74 %
07.02.2026 01:32 5,7 °C 5,0 °C 1,7 °C 97 % 998,6 hPa 0,0 l/m² 0 min 0 min 0 W/m² 6,4 km/h (2 Bft) 100,00 %
07.02.2026 01:34 5,7 °C 5,0 °C 1,7 °C 97 % 998,6 hPa 0,0 l/m² 0 min 0 min 0 W/m² 6,4 km/h (2 Bft) 100,00 %
07.02.2026 01:36 5,7 °C 5,0 °C 1,7 °C 97 % 998,6 hPa 0,0 l/m² 0 min 0 min 0 W/m² 6,4 km/h (2 Bft) 100,00 %
07.02.2026 01:38 5,7 °C 5,0 °C 1,7 °C 97 % 998,7 hPa 0,0 l/m² 0 min 0 min 0 W/m² 6,4 km/h (2 Bft) 100,00 %
07.02.2026 01:40 5,7 °C 5,0 °C 1,7 °C 97 % 998,7 hPa 0,0 l/m² 0 min 0 min 0 W/m² 12,9 km/h (3 Bft) 97,87 %
07.02.2026 01:42 5,7 °C 5,0 °C 1,7 °C 97 % 998,7 hPa 0,0 l/m² 0 min 0 min 0 W/m² 6,4 km/h (2 Bft) 100,00 %
07.02.2026 01:44 5,7 °C 5,0 °C 1,7 °C 97 % 998,7 hPa 0,0 l/m² 0 min 0 min 0 W/m² 6,4 km/h (2 Bft) 100,00 %
07.02.2026 01:46 5,7 °C 5,0 °C 1,7 °C 97 % 998,7 hPa 0,0 l/m² 0 min 0 min 0 W/m² 6,4 km/h (2 Bft) 97,87 %
07.02.2026 01:48 5,7 °C 5,0 °C 1,7 °C 97 % 998,7 hPa 0,0 l/m² 0 min 0 min 0 W/m² 6,4 km/h (2 Bft) 97,83 %
07.02.2026 01:50 5,7 °C 5,0 °C 1,7 °C 97 % 998,8 hPa 0,0 l/m² 0 min 0 min 0 W/m² 6,4 km/h (2 Bft) 97,87 %
07.02.2026 01:52 5,7 °C 5,0 °C 1,7 °C 97 % 998,8 hPa 0,0 l/m² 0 min 0 min 0 W/m² 6,4 km/h (2 Bft) 95,74 %
07.02.2026 01:54 5,7 °C 5,0 °C 1,7 °C 97 % 998,8 hPa 0,0 l/m² 0 min 0 min 0 W/m² 3,2 km/h (1 Bft) 97,87 %
07.02.2026 01:56 5,7 °C 5,0 °C 1,7 °C 97 % 998,8 hPa 0,0 l/m² 0 min 0 min 0 W/m² 6,4 km/h (2 Bft) 82,98 %
07.02.2026 01:58 5,7 °C 5,0 °C 1,7 °C 97 % 998,8 hPa 0,0 l/m² 0 min 0 min 0 W/m² 3,2 km/h (1 Bft) 67,44 %
07.02.2026 02:00 5,7 °C 5,0 °C 1,7 °C 97 % 998,8 hPa 0,0 l/m² 0 min 0 min 0 W/m² 6,4 km/h (2 Bft) 97,83 %
07.02.2026 02:02 5,7 °C 5,0 °C 1,7 °C 97 % 998,9 hPa 0,0 l/m² 0 min 0 min 0 W/m² 3,2 km/h (1 Bft) 95,74 %
07.02.2026 02:04 5,7 °C 5,0 °C 1,7 °C 97 % 998,9 hPa 0,0 l/m² 0 min 0 min 0 W/m² 6,4 km/h (2 Bft) 95,83 %
07.02.2026 02:06 5,7 °C 5,0 °C 1,7 °C 97 % 999,0 hPa 0,0 l/m² 0 min 0 min 0 W/m² 6,4 km/h (2 Bft) 97,87 %
07.02.2026 02:08 5,7 °C 5,0 °C 1,7 °C 97 % 999,0 hPa 0,0 l/m² 0 min 0 min 0 W/m² 6,4 km/h (2 Bft) 95,74 %
07.02.2026 02:10 5,7 °C 5,0 °C 1,7 °C 97 % 999,0 hPa 0,0 l/m² 0 min 0 min 0 W/m² 6,4 km/h (2 Bft) 97,14 %
07.02.2026 02:17 5,7 °C 5,0 °C 1,7 °C 97 % 999,1 hPa 0,0 l/m² 0 min 0 min 0 W/m² 6,4 km/h (2 Bft) 98,25 %
07.02.2026 02:18 5,7 °C 5,0 °C 1,7 °C 97 % 999,1 hPa 0,0 l/m² 0 min 0 min 0 W/m² 6,4 km/h (2 Bft) 100,00 %
07.02.2026 02:20 5,7 °C 5,0 °C 1,7 °C 97 % 999,2 hPa 0,0 l/m² 0 min 0 min 0 W/m² 12,9 km/h (3 Bft) 95,74 %
07.02.2026 02:22 5,7 °C 5,0 °C 1,7 °C 97 % 999,2 hPa 0,0 l/m² 0 min 0 min 0 W/m² 12,9 km/h (3 Bft) 97,87 %
07.02.2026 02:24 5,7 °C 5,0 °C 1,7 °C 97 % 999,2 hPa 0,0 l/m² 0 min 0 min 0 W/m² 6,4 km/h (2 Bft) 95,65 %
07.02.2026 02:26 5,7 °C 5,0 °C 1,7 °C 97 % 999,2 hPa 0,0 l/m² 0 min 0 min 0 W/m² 6,4 km/h (2 Bft) 100,00 %
07.02.2026 02:28 5,8 °C 5,0 °C 1,7 °C 98 % 999,2 hPa 0,0 l/m² 0 min 0 min 0 W/m² 6,4 km/h (2 Bft) 100,00 %
07.02.2026 02:30 5,8 °C 5,0 °C 1,7 °C 98 % 999,3 hPa 0,0 l/m² 0 min 0 min 0 W/m² 6,4 km/h (2 Bft) 100,00 %
07.02.2026 02:32 5,8 °C 5,0 °C 1,7 °C 98 % 999,3 hPa 0,0 l/m² 0 min 0 min 0 W/m² 6,4 km/h (2 Bft) 100,00 %
07.02.2026 02:34 5,8 °C 5,0 °C 1,7 °C 98 % 999,2 hPa 0,0 l/m² 0 min 0 min 0 W/m² 6,4 km/h (2 Bft) 100,00 %
07.02.2026 02:36 5,8 °C 5,0 °C 1,7 °C 98 % 999,3 hPa 0,0 l/m² 0 min 0 min 0 W/m² 6,4 km/h (2 Bft) 97,83 %
07.02.2026 02:38 5,8 °C 5,0 °C 1,7 °C 98 % 999,3 hPa 0,0 l/m² 0 min 0 min 0 W/m² 3,2 km/h (1 Bft) 95,74 %
07.02.2026 02:40 5,8 °C 5,0 °C 1,7 °C 98 % 999,3 hPa 0,0 l/m² 0 min 0 min 0 W/m² 6,4 km/h (2 Bft) 100,00 %
07.02.2026 02:42 5,8 °C 5,0 °C 1,7 °C 98 % 999,3 hPa 0,0 l/m² 0 min 0 min 0 W/m² 3,2 km/h (1 Bft) 100,00 %
07.02.2026 02:44 5,8 °C 5,0 °C 1,7 °C 98 % 999,3 hPa 0,0 l/m² 0 min 0 min 0 W/m² 6,4 km/h (2 Bft) 100,00 %
07.02.2026 02:46 5,8 °C 5,0 °C 1,7 °C 98 % 999,3 hPa 0,0 l/m² 0 min 0 min 0 W/m² 6,4 km/h (2 Bft) 97,87 %
07.02.2026 02:48 5,8 °C 5,6 °C 1,7 °C 98 % 999,3 hPa 0,0 l/m² 0 min 0 min 0 W/m² 6,4 km/h (2 Bft) 100,00 %
07.02.2026 02:50 5,8 °C 5,6 °C 1,7 °C 98 % 999,4 hPa 0,0 l/m² 0 min 0 min 0 W/m² 6,4 km/h (2 Bft) 97,87 %
07.02.2026 02:52 5,9 °C 5,6 °C 1,7 °C 98 % 999,4 hPa 0,0 l/m² 0 min 0 min 0 W/m² 6,4 km/h (2 Bft) 95,74 %
07.02.2026 02:54 5,9 °C 5,6 °C 1,7 °C 98 % 999,4 hPa 0,0 l/m² 0 min 0 min 0 W/m² 6,4 km/h (2 Bft) 97,87 %
07.02.2026 02:56 5,9 °C 5,6 °C 1,7 °C 98 % 999,5 hPa 0,0 l/m² 0 min 0 min 0 W/m² 6,4 km/h (2 Bft) 97,87 %
07.02.2026 02:58 5,9 °C 5,6 °C 2,2 °C 98 % 999,5 hPa 0,0 l/m² 0 min 0 min 0 W/m² 6,4 km/h (2 Bft) 97,83 %
07.02.2026 03:00 5,9 °C 5,6 °C 2,2 °C 98 % 999,5 hPa 0,0 l/m² 0 min 0 min 0 W/m² 3,2 km/h (1 Bft) 95,74 %
07.02.2026 03:02 5,9 °C 5,6 °C 2,2 °C 98 % 999,5 hPa 0,0 l/m² 0 min 0 min 0 W/m² 3,2 km/h (1 Bft) 95,74 %
07.02.2026 03:04 5,9 °C 5,6 °C 2,2 °C 98 % 999,5 hPa 0,0 l/m² 0 min 0 min 0 W/m² 3,2 km/h (1 Bft) 97,96 %
07.02.2026 03:06 6,0 °C 5,6 °C 2,2 °C 98 % 999,5 hPa 0,0 l/m² 0 min 0 min 0 W/m² 6,4 km/h (2 Bft) 97,87 %
07.02.2026 03:08 6,0 °C 5,6 °C 2,2 °C 98 % 999,6 hPa 0,0 l/m² 0 min 0 min 0 W/m² 3,2 km/h (1 Bft) 95,74 %
07.02.2026 03:10 6,0 °C 5,6 °C 2,2 °C 98 % 999,5 hPa 0,0 l/m² 0 min 0 min 0 W/m² 0,0 km/h (0 Bft) 97,83 %
07.02.2026 03:12 6,0 °C 5,6 °C 2,2 °C 98 % 999,5 hPa 0,0 l/m² 0 min 0 min 0 W/m² 6,4 km/h (2 Bft) 89,36 %
07.02.2026 03:14 6,0 °C 5,6 °C 2,2 °C 98 % 999,6 hPa 0,0 l/m² 0 min 0 min 0 W/m² 6,4 km/h (2 Bft) 97,87 %
07.02.2026 03:16 6,0 °C 5,6 °C 2,2 °C 98 % 999,5 hPa 0,0 l/m² 0 min 0 min 0 W/m² 3,2 km/h (1 Bft) 97,87 %
07.02.2026 03:18 6,0 °C 5,6 °C 2,2 °C 98 % 999,6 hPa 0,0 l/m² 0 min 0 min 0 W/m² 3,2 km/h (1 Bft) 97,87 %
07.02.2026 03:20 6,1 °C 5,6 °C 2,2 °C 98 % 999,5 hPa 0,0 l/m² 0 min 0 min 0 W/m² 3,2 km/h (1 Bft) 100,00 %
07.02.2026 03:22 6,1 °C 5,6 °C 2,2 °C 98 % 999,6 hPa 0,0 l/m² 0 min 0 min 0 W/m² 3,2 km/h (1 Bft) 95,65 %
07.02.2026 03:24 6,1 °C 5,6 °C 2,2 °C 98 % 999,6 hPa 0,0 l/m² 0 min 0 min 0 W/m² 6,4 km/h (2 Bft) 97,87 %
07.02.2026 03:26 6,1 °C 5,6 °C 2,2 °C 98 % 999,6 hPa 0,0 l/m² 0 min 0 min 0 W/m² 6,4 km/h (2 Bft) 100,00 %
07.02.2026 03:28 6,1 °C 5,6 °C 2,2 °C 98 % 999,6 hPa 0,0 l/m² 0 min 0 min 0 W/m² 3,2 km/h (1 Bft) 95,74 %
07.02.2026 03:30 6,1 °C 5,6 °C 2,2 °C 98 % 999,7 hPa 0,0 l/m² 0 min 0 min 0 W/m² 3,2 km/h (1 Bft) 97,87 %
07.02.2026 03:32 6,1 °C 5,6 °C 2,2 °C 98 % 999,6 hPa 0,0 l/m² 0 min 0 min 0 W/m² 3,2 km/h (1 Bft) 97,87 %
07.02.2026 03:34 6,1 °C 5,6 °C 2,2 °C 98 % 999,6 hPa 0,0 l/m² 0 min 0 min 0 W/m² 3,2 km/h (1 Bft) 95,65 %
07.02.2026 03:36 6,1 °C 5,6 °C 1,7 °C 98 % 999,6 hPa 0,0 l/m² 0 min 0 min 0 W/m² 3,2 km/h (1 Bft) 97,87 %
07.02.2026 03:38 6,1 °C 5,0 °C 1,7 °C 98 % 999,6 hPa 0,0 l/m² 0 min 0 min 0 W/m² 3,2 km/h (1 Bft) 95,74 %
07.02.2026 03:40 6,1 °C 5,6 °C 1,7 °C 98 % 999,7 hPa 0,0 l/m² 0 min 0 min 0 W/m² 6,4 km/h (2 Bft) 97,87 %
07.02.2026 03:42 6,1 °C 5,0 °C 1,7 °C 98 % 999,7 hPa 0,0 l/m² 0 min 0 min 0 W/m² 3,2 km/h (1 Bft) 95,74 %
07.02.2026 03:44 6,1 °C 5,0 °C 1,7 °C 98 % 999,7 hPa 0,0 l/m² 0 min 0 min 0 W/m² 6,4 km/h (2 Bft) 95,74 %
07.02.2026 03:46 6,1 °C 5,0 °C 1,7 °C 98 % 999,8 hPa 0,0 l/m² 0 min 0 min 0 W/m² 6,4 km/h (2 Bft) 93,48 %
07.02.2026 03:48 6,1 °C 5,0 °C 2,2 °C 98 % 999,8 hPa 0,0 l/m² 0 min 0 min 0 W/m² 0,0 km/h (0 Bft) 97,87 %
07.02.2026 03:50 6,0 °C 5,0 °C 1,7 °C 98 % 999,8 hPa 0,0 l/m² 0 min 0 min 0 W/m² 3,2 km/h (1 Bft) 97,87 %
07.02.2026 03:52 6,0 °C 5,0 °C 1,7 °C 98 % 999,8 hPa 0,0 l/m² 0 min 0 min 0 W/m² 3,2 km/h (1 Bft) 97,87 %
07.02.2026 03:54 6,0 °C 5,0 °C 1,7 °C 98 % 999,9 hPa 0,0 l/m² 0 min 0 min 0 W/m² 6,4 km/h (2 Bft) 95,74 %
07.02.2026 03:56 6,0 °C 5,0 °C 2,2 °C 98 % 999,8 hPa 0,0 l/m² 0 min 0 min 0 W/m² 6,4 km/h (2 Bft) 97,83 %
07.02.2026 03:58 6,0 °C 5,6 °C 2,2 °C 98 % 999,9 hPa 0,0 l/m² 0 min 0 min 0 W/m² 3,2 km/h (1 Bft) 95,74 %
07.02.2026 04:00 6,0 °C 5,6 °C 2,2 °C 98 % 999,9 hPa 0,0 l/m² 0 min 0 min 0 W/m² 6,4 km/h (2 Bft) 97,87 %
07.02.2026 04:02 6,0 °C 5,6 °C 2,2 °C 98 % 999,9 hPa 0,0 l/m² 0 min 0 min 0 W/m² 6,4 km/h (2 Bft) 97,87 %
07.02.2026 04:04 6,0 °C 5,6 °C 2,2 °C 98 % 999,9 hPa 0,0 l/m² 0 min 0 min 0 W/m² 6,4 km/h (2 Bft) 95,74 %
07.02.2026 04:06 6,0 °C 5,6 °C 2,2 °C 98 % 1000,0 hPa 0,0 l/m² 0 min 0 min 0 W/m² 6,4 km/h (2 Bft) 95,74 %
07.02.2026 04:08 6,0 °C 5,6 °C 2,2 °C 98 % 1000,0 hPa 0,0 l/m² 0 min 0 min 0 W/m² 6,4 km/h (2 Bft) 95,74 %
07.02.2026 04:10 6,0 °C 5,6 °C 2,2 °C 98 % 1000,0 hPa 0,0 l/m² 0 min 0 min 0 W/m² 6,4 km/h (2 Bft) 97,87 %
07.02.2026 04:12 6,0 °C 5,6 °C 2,2 °C 98 % 999,9 hPa 0,2 l/m² 0 min 2 min 0 W/m² 6,4 km/h (2 Bft) 93,62 %
07.02.2026 04:14 6,0 °C 5,6 °C 2,2 °C 98 % 1000,0 hPa 0,0 l/m² 0 min 2 min 0 W/m² 3,2 km/h (1 Bft) 51,22 %
07.02.2026 04:16 6,1 °C 5,6 °C 2,2 °C 98 % 1000,0 hPa 0,0 l/m² 0 min 0 min 0 W/m² 6,4 km/h (2 Bft) 97,62 %
07.02.2026 04:18 6,1 °C 5,6 °C 2,2 °C 98 % 1000,0 hPa 0,0 l/m² 0 min 0 min 0 W/m² 6,4 km/h (2 Bft) 97,87 %
07.02.2026 04:20 6,1 °C 5,6 °C 2,2 °C 98 % 1000,0 hPa 0,0 l/m² 0 min 0 min 0 W/m² 0,0 km/h (0 Bft) 95,65 %
07.02.2026 04:22 6,1 °C 5,6 °C 2,2 °C 98 % 1000,0 hPa 0,0 l/m² 0 min 0 min 0 W/m² 3,2 km/h (1 Bft) 93,62 %
07.02.2026 04:24 6,1 °C 5,6 °C 2,2 °C 98 % 1000,0 hPa 0,0 l/m² 0 min 0 min 0 W/m² 3,2 km/h (1 Bft) 97,87 %
07.02.2026 04:26 6,1 °C 5,6 °C 2,2 °C 98 % 1000,0 hPa 0,0 l/m² 0 min 0 min 0 W/m² 6,4 km/h (2 Bft) 97,87 %
07.02.2026 04:28 6,1 °C 5,6 °C 2,2 °C 98 % 1000,0 hPa 0,0 l/m² 0 min 0 min 0 W/m² 3,2 km/h (1 Bft) 97,87 %
07.02.2026 04:30 6,1 °C 5,6 °C 2,2 °C 98 % 1000,0 hPa 0,0 l/m² 0 min 0 min 0 W/m² 3,2 km/h (1 Bft) 93,62 %
07.02.2026 04:32 6,1 °C 5,6 °C 2,2 °C 98 % 1000,1 hPa 0,0 l/m² 0 min 0 min 0 W/m² 3,2 km/h (1 Bft) 95,65 %
07.02.2026 04:34 6,1 °C 5,6 °C 2,2 °C 98 % 1000,1 hPa 0,0 l/m² 0 min 0 min 0 W/m² 3,2 km/h (1 Bft) 97,87 %
07.02.2026 04:36 6,1 °C 5,6 °C 2,2 °C 98 % 1000,1 hPa 0,0 l/m² 0 min 0 min 0 W/m² 6,4 km/h (2 Bft) 97,87 %
07.02.2026 04:38 6,1 °C 5,6 °C 2,2 °C 98 % 1000,1 hPa 0,0 l/m² 0 min 0 min 0 W/m² 3,2 km/h (1 Bft) 95,74 %
07.02.2026 04:40 6,1 °C 5,6 °C 2,2 °C 98 % 1000,1 hPa 0,0 l/m² 0 min 0 min 0 W/m² 3,2 km/h (1 Bft) 95,74 %
07.02.2026 04:42 6,1 °C 5,6 °C 2,2 °C 98 % 1000,2 hPa 0,0 l/m² 0 min 0 min 0 W/m² 6,4 km/h (2 Bft) 93,62 %
07.02.2026 04:44 6,1 °C 5,6 °C 2,2 °C 98 % 1000,2 hPa 0,0 l/m² 0 min 0 min 0 W/m² 6,4 km/h (2 Bft) 95,65 %
07.02.2026 04:46 6,1 °C 5,6 °C 2,2 °C 98 % 1000,2 hPa 0,0 l/m² 0 min 0 min 0 W/m² 6,4 km/h (2 Bft) 95,74 %
07.02.2026 04:48 6,1 °C 5,6 °C 2,2 °C 98 % 1000,2 hPa 0,0 l/m² 0 min 0 min 0 W/m² 6,4 km/h (2 Bft) 95,74 %
07.02.2026 04:50 6,1 °C 5,6 °C 2,2 °C 98 % 1000,2 hPa 0,0 l/m² 0 min 0 min 0 W/m² 6,4 km/h (2 Bft) 95,74 %
07.02.2026 04:52 6,1 °C 5,6 °C 2,2 °C 98 % 1000,2 hPa 0,0 l/m² 0 min 0 min 0 W/m² 3,2 km/h (1 Bft) 95,74 %
07.02.2026 04:54 6,1 °C 5,6 °C 2,2 °C 98 % 1000,3 hPa 0,0 l/m² 0 min 0 min 0 W/m² 6,4 km/h (2 Bft) 93,62 %
07.02.2026 04:56 6,1 °C 5,6 °C 2,2 °C 98 % 1000,3 hPa 0,0 l/m² 0 min 0 min 0 W/m² 3,2 km/h (1 Bft) 95,65 %
07.02.2026 04:58 6,1 °C 5,6 °C 2,2 °C 98 % 1000,3 hPa 0,0 l/m² 0 min 0 min 0 W/m² 3,2 km/h (1 Bft) 100,00 %
07.02.2026 05:00 6,1 °C 5,6 °C 2,2 °C 98 % 1000,4 hPa 0,0 l/m² 0 min 0 min 0 W/m² 3,2 km/h (1 Bft) 97,87 %
07.02.2026 05:02 6,1 °C 5,0 °C 2,2 °C 98 % 1000,4 hPa 0,0 l/m² 0 min 0 min 0 W/m² 0,0 km/h (0 Bft) 97,87 %
07.02.2026 05:04 6,1 °C 5,0 °C 2,2 °C 98 % 1000,4 hPa 0,0 l/m² 0 min 0 min 0 W/m² 3,2 km/h (1 Bft) 97,87 %
07.02.2026 05:06 6,1 °C 5,6 °C 2,2 °C 98 % 1000,4 hPa 0,0 l/m² 0 min 0 min 0 W/m² 6,4 km/h (2 Bft) 95,74 %
07.02.2026 05:08 6,1 °C 5,6 °C 2,2 °C 98 % 1000,4 hPa 0,0 l/m² 0 min 0 min 0 W/m² 3,2 km/h (1 Bft) 95,74 %
07.02.2026 05:10 6,1 °C 5,6 °C 2,2 °C 98 % 1000,4 hPa 0,0 l/m² 0 min 0 min 0 W/m² 6,4 km/h (2 Bft) 97,87 %
07.02.2026 05:12 6,1 °C 5,6 °C 2,2 °C 98 % 1000,4 hPa 0,0 l/m² 0 min 0 min 0 W/m² 6,4 km/h (2 Bft) 95,74 %
07.02.2026 05:14 6,1 °C 5,6 °C 2,2 °C 98 % 1000,4 hPa 0,0 l/m² 0 min 0 min 0 W/m² 6,4 km/h (2 Bft) 100,00 %
07.02.2026 05:16 6,1 °C 5,6 °C 2,2 °C 98 % 1000,4 hPa 0,0 l/m² 0 min 0 min 0 W/m² 6,4 km/h (2 Bft) 100,00 %
07.02.2026 05:18 6,1 °C 5,6 °C 2,2 °C 98 % 1000,5 hPa 0,0 l/m² 0 min 0 min 0 W/m² 6,4 km/h (2 Bft) 100,00 %
07.02.2026 05:20 6,0 °C 5,6 °C 2,2 °C 98 % 1000,5 hPa 0,0 l/m² 0 min 0 min 0 W/m² 3,2 km/h (1 Bft) 100,00 %
07.02.2026 05:22 6,1 °C 5,0 °C 2,2 °C 98 % 1000,5 hPa 0,0 l/m² 0 min 0 min 0 W/m² 3,2 km/h (1 Bft) 100,00 %
07.02.2026 05:24 6,0 °C 5,0 °C 2,2 °C 98 % 1000,5 hPa 0,0 l/m² 0 min 0 min 0 W/m² 6,4 km/h (2 Bft) 100,00 %
07.02.2026 05:26 6,1 °C 5,0 °C 2,2 °C 98 % 1000,5 hPa 0,0 l/m² 0 min 0 min 0 W/m² 3,2 km/h (1 Bft) 95,74 %
07.02.2026 05:28 6,1 °C 5,0 °C 2,2 °C 98 % 1000,5 hPa 0,0 l/m² 0 min 0 min 0 W/m² 0,0 km/h (0 Bft) 100,00 %
07.02.2026 05:30 6,0 °C 5,0 °C 1,7 °C 98 % 1000,5 hPa 0,0 l/m² 0 min 0 min 0 W/m² 0,0 km/h (0 Bft) 100,00 %
07.02.2026 05:32 6,0 °C 5,0 °C 1,7 °C 98 % 1000,6 hPa 0,0 l/m² 0 min 0 min 0 W/m² 0,0 km/h (0 Bft) 100,00 %
07.02.2026 05:34 6,0 °C 5,0 °C 1,7 °C 98 % 1000,6 hPa 0,0 l/m² 0 min 0 min 0 W/m² 0,0 km/h (0 Bft) 100,00 %
07.02.2026 05:36 6,0 °C 5,0 °C 1,7 °C 98 % 1000,6 hPa 0,0 l/m² 0 min 0 min 0 W/m² 0,0 km/h (0 Bft) 100,00 %
07.02.2026 05:38 5,9 °C 5,0 °C 1,7 °C 98 % 1000,6 hPa 0,0 l/m² 0 min 0 min 0 W/m² 0,0 km/h (0 Bft) 100,00 %
07.02.2026 05:40 5,9 °C 5,0 °C 1,7 °C 98 % 1000,6 hPa 0,0 l/m² 0 min 0 min 0 W/m² 0,0 km/h (0 Bft) 97,87 %
07.02.2026 05:42 5,9 °C 5,0 °C 1,7 °C 98 % 1000,6 hPa 0,0 l/m² 0 min 0 min 0 W/m² 6,4 km/h (2 Bft) 97,83 %
07.02.2026 05:44 5,8 °C 5,0 °C 1,7 °C 98 % 1000,7 hPa 0,0 l/m² 0 min 0 min 0 W/m² 6,4 km/h (2 Bft) 100,00 %
07.02.2026 05:46 5,8 °C 5,0 °C 1,7 °C 98 % 1000,7 hPa 0,0 l/m² 0 min 0 min 0 W/m² 6,4 km/h (2 Bft) 100,00 %
07.02.2026 05:48 5,8 °C 4,4 °C 1,7 °C 98 % 1000,7 hPa 0,0 l/m² 0 min 0 min 0 W/m² 6,4 km/h (2 Bft) 100,00 %
07.02.2026 05:50 5,8 °C 4,4 °C 1,7 °C 98 % 1000,8 hPa 0,0 l/m² 0 min 0 min 0 W/m² 3,2 km/h (1 Bft) 100,00 %
07.02.2026 05:52 5,8 °C 4,4 °C 1,7 °C 98 % 1000,7 hPa 0,0 l/m² 0 min 0 min 0 W/m² 3,2 km/h (1 Bft) 97,87 %
07.02.2026 05:54 5,7 °C 4,4 °C 1,7 °C 98 % 1000,7 hPa 0,0 l/m² 0 min 0 min 0 W/m² 3,2 km/h (1 Bft) 100,00 %
07.02.2026 05:56 5,7 °C 4,4 °C 1,7 °C 98 % 1000,7 hPa 0,0 l/m² 0 min 0 min 0 W/m² 3,2 km/h (1 Bft) 100,00 %
07.02.2026 05:58 5,7 °C 4,4 °C 1,7 °C 98 % 1000,8 hPa 0,0 l/m² 0 min 0 min 0 W/m² 3,2 km/h (1 Bft) 100,00 %
07.02.2026 06:00 5,6 °C 4,4 °C 1,7 °C 98 % 1000,8 hPa 0,0 l/m² 0 min 0 min 0 W/m² 6,4 km/h (2 Bft) 100,00 %
07.02.2026 06:02 5,6 °C 4,4 °C 1,7 °C 98 % 1000,8 hPa 0,0 l/m² 0 min 0 min 0 W/m² 6,4 km/h (2 Bft) 100,00 %
07.02.2026 06:04 5,6 °C 4,4 °C 1,7 °C 98 % 1000,9 hPa 0,0 l/m² 0 min 0 min 0 W/m² 6,4 km/h (2 Bft) 97,87 %
07.02.2026 06:08 5,5 °C 4,4 °C 1,1 °C 98 % 1000,9 hPa 0,0 l/m² 0 min 0 min 0 W/m² 12,9 km/h (3 Bft) 97,56 %
07.02.2026 06:10 5,5 °C 4,4 °C 1,1 °C 98 % 1001,0 hPa 0,0 l/m² 0 min 0 min 0 W/m² 3,2 km/h (1 Bft) 100,00 %
07.02.2026 06:12 5,4 °C 4,4 °C 1,1 °C 98 % 1001,0 hPa 0,0 l/m² 0 min 0 min 0 W/m² 6,4 km/h (2 Bft) 100,00 %
07.02.2026 06:14 5,4 °C 4,4 °C 1,1 °C 98 % 1001,0 hPa 0,0 l/m² 0 min 0 min 0 W/m² 3,2 km/h (1 Bft) 97,87 %
07.02.2026 06:16 5,4 °C 4,4 °C 1,1 °C 98 % 1000,9 hPa 0,0 l/m² 0 min 0 min 0 W/m² 3,2 km/h (1 Bft) 100,00 %
07.02.2026 06:18 5,4 °C 4,4 °C 1,1 °C 98 % 1001,0 hPa 0,0 l/m² 0 min 0 min 0 W/m² 6,4 km/h (2 Bft) 97,87 %
07.02.2026 06:20 5,3 °C 4,4 °C 1,1 °C 98 % 1001,0 hPa 0,0 l/m² 0 min 0 min 0 W/m² 6,4 km/h (2 Bft) 100,00 %
07.02.2026 06:22 5,3 °C 4,4 °C 1,1 °C 98 % 1000,9 hPa 0,0 l/m² 0 min 0 min 0 W/m² 0,0 km/h (0 Bft) 97,87 %
07.02.2026 06:24 5,3 °C 4,4 °C 1,1 °C 98 % 1000,9 hPa 0,0 l/m² 0 min 0 min 0 W/m² 0,0 km/h (0 Bft) 100,00 %
07.02.2026 06:26 5,3 °C 4,4 °C 1,1 °C 98 % 1000,9 hPa 0,0 l/m² 0 min 0 min 0 W/m² 0,0 km/h (0 Bft) 97,87 %
07.02.2026 06:28 5,2 °C 3,9 °C 1,1 °C 98 % 1001,0 hPa 0,0 l/m² 0 min 0 min 0 W/m² 3,2 km/h (1 Bft) 93,62 %
07.02.2026 06:30 5,2 °C 3,9 °C 1,1 °C 98 % 1001,0 hPa 0,0 l/m² 0 min 0 min 0 W/m² 0,0 km/h (0 Bft) 97,87 %
07.02.2026 06:32 5,2 °C 3,9 °C 1,1 °C 98 % 1001,0 hPa 0,0 l/m² 0 min 0 min 0 W/m² 0,0 km/h (0 Bft) 95,65 %
07.02.2026 06:34 5,2 °C 3,9 °C 1,1 °C 98 % 1001,1 hPa 0,0 l/m² 0 min 0 min 0 W/m² 3,2 km/h (1 Bft) 91,49 %
07.02.2026 06:36 5,2 °C 3,9 °C 1,1 °C 98 % 1001,1 hPa 0,0 l/m² 0 min 0 min 0 W/m² 6,4 km/h (2 Bft) 93,62 %
07.02.2026 06:38 5,1 °C 3,9 °C 1,1 °C 98 % 1001,1 hPa 0,0 l/m² 0 min 0 min 0 W/m² 6,4 km/h (2 Bft) 95,74 %
07.02.2026 06:40 5,1 °C 3,9 °C 1,1 °C 98 % 1001,2 hPa 0,0 l/m² 0 min 0 min 0 W/m² 3,2 km/h (1 Bft) 91,49 %
07.02.2026 06:42 5,1 °C 3,9 °C 1,1 °C 98 % 1001,2 hPa 0,0 l/m² 0 min 0 min 0 W/m² 6,4 km/h (2 Bft) 95,65 %
07.02.2026 06:44 5,1 °C 3,9 °C 1,1 °C 98 % 1001,2 hPa 0,0 l/m² 0 min 0 min 0 W/m² 6,4 km/h (2 Bft) 91,49 %
07.02.2026 06:46 5,1 °C 3,9 °C 1,1 °C 98 % 1001,2 hPa 0,0 l/m² 0 min 0 min 0 W/m² 6,4 km/h (2 Bft) 93,62 %
07.02.2026 06:48 5,1 °C 3,9 °C 1,1 °C 98 % 1001,3 hPa 0,0 l/m² 0 min 0 min 0 W/m² 6,4 km/h (2 Bft) 91,49 %
07.02.2026 06:50 5,0 °C 3,9 °C 1,1 °C 98 % 1001,2 hPa 0,0 l/m² 0 min 0 min 0 W/m² 3,2 km/h (1 Bft) 93,62 %
07.02.2026 06:52 5,0 °C 3,9 °C 1,1 °C 98 % 1001,3 hPa 0,0 l/m² 0 min 0 min 0 W/m² 0,0 km/h (0 Bft) 89,36 %
07.02.2026 06:54 4,9 °C 3,9 °C 1,1 °C 98 % 1001,3 hPa 0,0 l/m² 0 min 0 min 0 W/m² 0,0 km/h (0 Bft) 91,30 %
07.02.2026 06:56 4,9 °C 3,9 °C 1,1 °C 98 % 1001,3 hPa 0,0 l/m² 0 min 0 min 0 W/m² 0,0 km/h (0 Bft) 91,49 %
07.02.2026 06:58 4,9 °C 3,9 °C 1,1 °C 98 % 1001,3 hPa 0,0 l/m² 0 min 0 min 0 W/m² 0,0 km/h (0 Bft) 93,62 %
07.02.2026 07:00 4,9 °C 3,9 °C 1,1 °C 98 % 1001,4 hPa 0,0 l/m² 0 min 0 min 0 W/m² 0,0 km/h (0 Bft) 91,49 %
07.02.2026 07:02 4,9 °C 3,9 °C 1,1 °C 98 % 1001,5 hPa 0,0 l/m² 0 min 0 min 0 W/m² 0,0 km/h (0 Bft) 95,74 %
07.02.2026 07:04 4,9 °C 3,9 °C 1,1 °C 98 % 1001,5 hPa 0,0 l/m² 0 min 0 min 0 W/m² 0,0 km/h (0 Bft) 93,75 %
07.02.2026 07:06 4,9 °C 3,9 °C 1,1 °C 98 % 1001,5 hPa 0,0 l/m² 0 min 0 min 0 W/m² 6,4 km/h (2 Bft) 94,83 %
07.02.2026 07:08 4,8 °C 3,9 °C 1,1 °C 98 % 1001,5 hPa 0,0 l/m² 0 min 0 min 0 W/m² 6,4 km/h (2 Bft) 95,74 %
07.02.2026 07:10 4,8 °C 3,9 °C 1,1 °C 98 % 1001,6 hPa 0,0 l/m² 0 min 0 min 0 W/m² 3,2 km/h (1 Bft) 94,29 %
07.02.2026 07:12 4,8 °C 3,9 °C 1,1 °C 98 % 1001,6 hPa 0,0 l/m² 0 min 0 min 0 W/m² 6,4 km/h (2 Bft) 97,87 %
07.02.2026 07:14 4,8 °C 3,9 °C 1,1 °C 98 % 1001,5 hPa 0,0 l/m² 0 min 0 min 0 W/m² 9,7 km/h (2 Bft) 95,74 %
07.02.2026 07:16 4,8 °C 3,9 °C 1,1 °C 98 % 1001,6 hPa 0,0 l/m² 0 min 0 min 0 W/m² 6,4 km/h (2 Bft) 95,74 %
07.02.2026 07:18 4,8 °C 3,9 °C 1,1 °C 98 % 1001,5 hPa 0,0 l/m² 0 min 0 min 0 W/m² 6,4 km/h (2 Bft) 95,65 %
07.02.2026 07:20 4,8 °C 3,9 °C 1,1 °C 98 % 1001,6 hPa 0,0 l/m² 0 min 0 min 0 W/m² 6,4 km/h (2 Bft) 95,74 %
07.02.2026 07:22 4,8 °C 3,9 °C 1,1 °C 98 % 1001,6 hPa 0,0 l/m² 0 min 0 min 0 W/m² 0,0 km/h (0 Bft) 95,74 %
07.02.2026 07:24 4,8 °C 3,9 °C 1,1 °C 98 % 1001,6 hPa 0,0 l/m² 0 min 0 min 0 W/m² 6,4 km/h (2 Bft) 95,74 %
07.02.2026 07:26 4,8 °C 3,9 °C 1,1 °C 98 % 1001,6 hPa 0,0 l/m² 0 min 0 min 0 W/m² 6,4 km/h (2 Bft) 95,74 %
07.02.2026 07:28 4,8 °C 3,9 °C 1,1 °C 98 % 1001,7 hPa 0,0 l/m² 0 min 0 min 0 W/m² 6,4 km/h (2 Bft) 93,62 %
07.02.2026 07:30 4,8 °C 3,9 °C 1,1 °C 98 % 1001,7 hPa 0,0 l/m² 0 min 0 min 0 W/m² 6,4 km/h (2 Bft) 95,65 %
07.02.2026 07:32 4,8 °C 3,9 °C 1,1 °C 98 % 1001,7 hPa 0,0 l/m² 0 min 0 min 0 W/m² 6,4 km/h (2 Bft) 100,00 %
07.02.2026 07:34 4,8 °C 3,9 °C 1,1 °C 98 % 1001,8 hPa 0,0 l/m² 0 min 0 min 0 W/m² 6,4 km/h (2 Bft) 100,00 %
07.02.2026 07:36 4,7 °C 3,9 °C 0,6 °C 98 % 1001,8 hPa 0,0 l/m² 0 min 0 min 0 W/m² 6,4 km/h (2 Bft) 97,87 %
07.02.2026 07:38 4,7 °C 3,9 °C 0,6 °C 98 % 1001,8 hPa 0,0 l/m² 0 min 0 min 0 W/m² 6,4 km/h (2 Bft) 97,87 %
07.02.2026 07:40 4,7 °C 3,9 °C 0,6 °C 98 % 1001,8 hPa 0,0 l/m² 0 min 0 min 0 W/m² 6,4 km/h (2 Bft) 97,83 %
07.02.2026 07:42 4,7 °C 3,9 °C 0,6 °C 98 % 1001,8 hPa 0,0 l/m² 0 min 0 min 0 W/m² 3,2 km/h (1 Bft) 95,74 %
07.02.2026 07:44 4,7 °C 3,9 °C 0,6 °C 98 % 1001,9 hPa 0,0 l/m² 0 min 0 min 0 W/m² 6,4 km/h (2 Bft) 100,00 %
07.02.2026 07:46 4,7 °C 3,9 °C 0,6 °C 98 % 1001,9 hPa 0,0 l/m² 0 min 0 min 0 W/m² 6,4 km/h (2 Bft) 100,00 %
07.02.2026 07:48 4,6 °C 3,9 °C 0,6 °C 98 % 1002,0 hPa 0,0 l/m² 0 min 0 min 0 W/m² 6,4 km/h (2 Bft) 100,00 %
07.02.2026 07:50 4,6 °C 3,9 °C 1,1 °C 98 % 1002,0 hPa 0,0 l/m² 0 min 0 min 0 W/m² 6,4 km/h (2 Bft) 100,00 %
07.02.2026 07:52 4,6 °C 3,9 °C 1,1 °C 98 % 1002,0 hPa 0,0 l/m² 0 min 0 min 0 W/m² 6,4 km/h (2 Bft) 100,00 %
07.02.2026 07:54 4,6 °C 3,9 °C 1,1 °C 98 % 1002,0 hPa 0,0 l/m² 0 min 0 min 0 W/m² 6,4 km/h (2 Bft) 100,00 %
07.02.2026 07:56 4,6 °C 3,9 °C 1,1 °C 98 % 1002,0 hPa 0,0 l/m² 0 min 0 min 0 W/m² 6,4 km/h (2 Bft) 95,74 %
07.02.2026 07:58 4,6 °C 3,9 °C 1,1 °C 98 % 1002,1 hPa 0,0 l/m² 0 min 0 min 0 W/m² 3,2 km/h (1 Bft) 100,00 %
07.02.2026 08:00 4,6 °C 3,9 °C 1,1 °C 98 % 1002,2 hPa 0,0 l/m² 0 min 0 min 0 W/m² 12,9 km/h (3 Bft) 100,00 %
07.02.2026 08:02 4,6 °C 3,9 °C 1,1 °C 98 % 1002,2 hPa 0,0 l/m² 0 min 0 min 0 W/m² 3,2 km/h (1 Bft) 97,87 %
07.02.2026 08:08 4,6 °C 3,9 °C 1,1 °C 98 % 1002,2 hPa 0,0 l/m² 0 min 0 min 2 W/m² 6,4 km/h (2 Bft) 100,00 %
07.02.2026 08:10 4,6 °C 3,9 °C 1,1 °C 98 % 1002,2 hPa 0,0 l/m² 0 min 0 min 5 W/m² 6,4 km/h (2 Bft) 100,00 %
07.02.2026 08:12 4,6 °C 3,9 °C 1,1 °C 98 % 1002,2 hPa 0,0 l/m² 0 min 0 min 5 W/m² 3,2 km/h (1 Bft) 97,87 %
07.02.2026 08:14 4,6 °C 3,9 °C 1,1 °C 98 % 1002,3 hPa 0,0 l/m² 0 min 0 min 7 W/m² 6,4 km/h (2 Bft) 97,87 %
07.02.2026 08:16 4,6 °C 3,9 °C 1,1 °C 98 % 1002,3 hPa 0,0 l/m² 0 min 0 min 7 W/m² 12,9 km/h (3 Bft) 100,00 %
07.02.2026 08:18 4,6 °C 3,9 °C 1,1 °C 98 % 1002,3 hPa 0,0 l/m² 0 min 0 min 7 W/m² 6,4 km/h (2 Bft) 100,00 %
07.02.2026 08:20 4,6 °C 3,9 °C 1,1 °C 98 % 1002,3 hPa 0,0 l/m² 0 min 0 min 8 W/m² 6,4 km/h (2 Bft) 100,00 %
07.02.2026 08:22 4,6 °C 3,9 °C 1,1 °C 98 % 1002,3 hPa 0,0 l/m² 0 min 0 min 9 W/m² 6,4 km/h (2 Bft) 100,00 %
07.02.2026 08:24 4,6 °C 3,9 °C 1,1 °C 98 % 1002,3 hPa 0,0 l/m² 0 min 0 min 11 W/m² 6,4 km/h (2 Bft) 95,74 %
07.02.2026 08:26 4,6 °C 3,9 °C 1,1 °C 98 % 1002,4 hPa 0,0 l/m² 0 min 0 min 11 W/m² 6,4 km/h (2 Bft) 97,87 %
07.02.2026 08:28 4,6 °C 3,9 °C 1,1 °C 98 % 1002,3 hPa 0,0 l/m² 0 min 0 min 12 W/m² 12,9 km/h (3 Bft) 97,83 %
07.02.2026 08:30 4,7 °C 3,9 °C 1,1 °C 98 % 1002,4 hPa 0,0 l/m² 0 min 0 min 16 W/m² 6,4 km/h (2 Bft) 97,87 %
07.02.2026 08:32 4,7 °C 3,9 °C 1,1 °C 98 % 1002,5 hPa 0,0 l/m² 0 min 0 min 19 W/m² 16,1 km/h (3 Bft) 95,74 %
07.02.2026 08:34 4,7 °C 3,9 °C 1,1 °C 98 % 1002,5 hPa 0,0 l/m² 0 min 0 min 19 W/m² 12,9 km/h (3 Bft) 97,87 %
07.02.2026 08:36 4,7 °C 3,9 °C 1,1 °C 98 % 1002,5 hPa 0,0 l/m² 0 min 0 min 19 W/m² 6,4 km/h (2 Bft) 95,74 %
07.02.2026 08:38 4,7 °C 4,4 °C 1,1 °C 98 % 1002,5 hPa 0,0 l/m² 0 min 0 min 19 W/m² 12,9 km/h (3 Bft) 95,65 %
07.02.2026 08:40 4,7 °C 4,4 °C 1,1 °C 98 % 1002,5 hPa 0,0 l/m² 0 min 0 min 20 W/m² 12,9 km/h (3 Bft) 97,87 %
07.02.2026 08:42 4,7 °C 4,4 °C 1,1 °C 98 % 1002,5 hPa 0,0 l/m² 0 min 0 min 21 W/m² 6,4 km/h (2 Bft) 93,62 %
07.02.2026 08:44 4,8 °C 4,4 °C 1,1 °C 98 % 1002,5 hPa 0,0 l/m² 0 min 0 min 21 W/m² 6,4 km/h (2 Bft) 97,87 %
07.02.2026 08:46 4,8 °C 4,4 °C 1,1 °C 98 % 1002,5 hPa 0,0 l/m² 0 min 0 min 21 W/m² 6,4 km/h (2 Bft) 97,87 %
07.02.2026 08:48 4,8 °C 4,4 °C 1,1 °C 98 % 1002,6 hPa 0,0 l/m² 0 min 0 min 22 W/m² 12,9 km/h (3 Bft) 97,87 %
07.02.2026 08:50 4,8 °C 4,4 °C 1,1 °C 98 % 1002,6 hPa 0,0 l/m² 0 min 0 min 23 W/m² 6,4 km/h (2 Bft) 97,83 %
07.02.2026 08:52 4,8 °C 4,4 °C 1,1 °C 98 % 1002,6 hPa 0,0 l/m² 0 min 0 min 24 W/m² 6,4 km/h (2 Bft) 97,87 %
07.02.2026 08:54 4,8 °C 4,4 °C 1,1 °C 98 % 1002,6 hPa 0,0 l/m² 0 min 0 min 26 W/m² 12,9 km/h (3 Bft) 95,74 %
07.02.2026 08:56 4,8 °C 4,4 °C 1,1 °C 98 % 1002,7 hPa 0,0 l/m² 0 min 0 min 27 W/m² 12,9 km/h (3 Bft) 100,00 %
07.02.2026 08:58 4,8 °C 4,4 °C 1,1 °C 98 % 1002,7 hPa 0,0 l/m² 0 min 0 min 28 W/m² 12,9 km/h (3 Bft) 95,74 %
07.02.2026 09:00 4,8 °C 4,4 °C 1,1 °C 98 % 1002,7 hPa 0,0 l/m² 0 min 0 min 30 W/m² 12,9 km/h (3 Bft) 97,87 %
07.02.2026 09:02 4,8 °C 4,4 °C 1,1 °C 98 % 1002,7 hPa 0,0 l/m² 0 min 0 min 32 W/m² 6,4 km/h (2 Bft) 97,83 %
07.02.2026 09:04 4,8 °C 4,4 °C 1,1 °C 98 % 1002,7 hPa 0,0 l/m² 0 min 0 min 33 W/m² 6,4 km/h (2 Bft) 100,00 %
07.02.2026 09:06 4,8 °C 4,4 °C 1,1 °C 98 % 1002,8 hPa 0,0 l/m² 0 min 0 min 33 W/m² 6,4 km/h (2 Bft) 96,61 %
07.02.2026 09:08 4,8 °C 4,4 °C 1,1 °C 98 % 1002,8 hPa 0,0 l/m² 0 min 0 min 33 W/m² 6,4 km/h (2 Bft) 100,00 %
07.02.2026 09:10 4,8 °C 4,4 °C 1,1 °C 98 % 1002,8 hPa 0,0 l/m² 0 min 0 min 35 W/m² 6,4 km/h (2 Bft) 100,00 %
07.02.2026 09:12 4,8 °C 4,4 °C 1,1 °C 98 % 1002,8 hPa 0,0 l/m² 0 min 0 min 37 W/m² 6,4 km/h (2 Bft) 97,87 %
07.02.2026 09:14 4,9 °C 4,4 °C 1,1 °C 98 % 1002,8 hPa 0,0 l/m² 0 min 0 min 40 W/m² 6,4 km/h (2 Bft) 100,00 %
07.02.2026 09:16 4,9 °C 4,4 °C 1,1 °C 98 % 1002,9 hPa 0,0 l/m² 0 min 0 min 45 W/m² 6,4 km/h (2 Bft) 100,00 %
07.02.2026 09:18 4,9 °C 5,0 °C 1,1 °C 98 % 1002,9 hPa 0,0 l/m² 0 min 0 min 44 W/m² 6,4 km/h (2 Bft) 100,00 %
07.02.2026 09:20 4,9 °C 5,0 °C 1,1 °C 98 % 1002,9 hPa 0,0 l/m² 0 min 0 min 44 W/m² 3,2 km/h (1 Bft) 97,87 %
07.02.2026 09:22 4,9 °C 5,0 °C 1,7 °C 98 % 1002,9 hPa 0,0 l/m² 0 min 0 min 42 W/m² 6,4 km/h (2 Bft) 97,87 %
07.02.2026 09:24 4,9 °C 5,0 °C 1,7 °C 98 % 1002,9 hPa 0,0 l/m² 0 min 0 min 41 W/m² 3,2 km/h (1 Bft) 97,87 %
07.02.2026 09:26 5,0 °C 5,0 °C 1,7 °C 99 % 1002,9 hPa 0,0 l/m² 0 min 0 min 40 W/m² 6,4 km/h (2 Bft) 97,83 %
07.02.2026 09:28 5,1 °C 5,0 °C 1,7 °C 99 % 1003,0 hPa 0,0 l/m² 0 min 0 min 40 W/m² 6,4 km/h (2 Bft) 93,62 %
07.02.2026 09:30 5,1 °C 5,0 °C 1,7 °C 99 % 1003,0 hPa 0,0 l/m² 0 min 0 min 42 W/m² 0,0 km/h (0 Bft) 95,74 %
07.02.2026 09:32 5,1 °C 5,0 °C 1,7 °C 99 % 1003,1 hPa 0,0 l/m² 0 min 0 min 42 W/m² 0,0 km/h (0 Bft) 95,74 %
07.02.2026 09:34 5,2 °C 5,0 °C 1,7 °C 99 % 1003,0 hPa 0,0 l/m² 0 min 0 min 42 W/m² 6,4 km/h (2 Bft) 39,39 %
07.02.2026 09:36 5,2 °C 5,0 °C 1,7 °C 99 % 1003,1 hPa 0,0 l/m² 0 min 0 min 44 W/m² 3,2 km/h (1 Bft) 95,74 %
07.02.2026 09:38 5,2 °C 5,0 °C 1,7 °C 99 % 1003,1 hPa 0,0 l/m² 0 min 0 min 45 W/m² 3,2 km/h (1 Bft) 95,65 %
07.02.2026 09:40 5,2 °C 5,6 °C 1,7 °C 99 % 1003,1 hPa 0,0 l/m² 0 min 0 min 48 W/m² 6,4 km/h (2 Bft) 95,74 %
07.02.2026 09:42 5,3 °C 5,6 °C 1,7 °C 99 % 1003,1 hPa 0,0 l/m² 0 min 0 min 56 W/m² 6,4 km/h (2 Bft) 95,74 %
07.02.2026 09:44 5,3 °C 5,6 °C 1,7 °C 99 % 1003,2 hPa 0,0 l/m² 0 min 0 min 63 W/m² 9,7 km/h (2 Bft) 91,49 %
07.02.2026 09:46 5,4 °C 5,6 °C 1,7 °C 99 % 1003,2 hPa 0,0 l/m² 0 min 0 min 69 W/m² 6,4 km/h (2 Bft) 93,62 %
07.02.2026 09:48 5,4 °C 5,6 °C 1,7 °C 99 % 1003,2 hPa 0,0 l/m² 0 min 0 min 69 W/m² 6,4 km/h (2 Bft) 95,65 %
07.02.2026 09:50 5,4 °C 5,6 °C 1,7 °C 99 % 1003,3 hPa 0,0 l/m² 0 min 0 min 83 W/m² 6,4 km/h (2 Bft) 93,62 %
07.02.2026 09:52 5,5 °C 5,6 °C 1,7 °C 99 % 1003,2 hPa 0,0 l/m² 0 min 0 min 61 W/m² 6,4 km/h (2 Bft) 95,74 %
07.02.2026 09:54 5,6 °C 6,1 °C 2,2 °C 99 % 1003,3 hPa 0,0 l/m² 0 min 0 min 51 W/m² 6,4 km/h (2 Bft) 93,62 %
07.02.2026 09:56 5,7 °C 6,1 °C 2,2 °C 99 % 1003,3 hPa 0,0 l/m² 0 min 0 min 55 W/m² 12,9 km/h (3 Bft) 93,62 %
07.02.2026 09:58 5,7 °C 6,7 °C 2,2 °C 99 % 1003,3 hPa 0,0 l/m² 0 min 0 min 110 W/m² 12,9 km/h (3 Bft) 93,62 %
07.02.2026 10:00 5,8 °C 7,2 °C 2,2 °C 99 % 1003,4 hPa 0,0 l/m² 0 min 0 min 112 W/m² 6,4 km/h (2 Bft) 95,65 %
07.02.2026 10:02 5,9 °C 8,3 °C 2,2 °C 99 % 1003,4 hPa 0,0 l/m² 0 min 0 min 100 W/m² 12,9 km/h (3 Bft) 91,49 %
07.02.2026 10:04 6,0 °C 9,4 °C 2,2 °C 99 % 1003,4 hPa 0,0 l/m² 0 min 0 min 114 W/m² 9,7 km/h (2 Bft) 95,83 %
07.02.2026 10:06 6,1 °C 9,4 °C 2,2 °C 99 % 1003,4 hPa 0,0 l/m² 2 min 0 min 129 W/m² 12,9 km/h (3 Bft) 94,92 %
07.02.2026 10:08 6,1 °C 10,0 °C 2,2 °C 99 % 1003,4 hPa 0,0 l/m² 2 min 0 min 146 W/m² 6,4 km/h (2 Bft) 94,29 %
07.02.2026 10:10 6,2 °C 10,0 °C 2,2 °C 99 % 1003,4 hPa 0,0 l/m² 2 min 0 min 156 W/m² 6,4 km/h (2 Bft) 95,74 %
07.02.2026 10:12 6,3 °C 10,6 °C 2,2 °C 99 % 1003,5 hPa 0,0 l/m² 2 min 0 min 180 W/m² 6,4 km/h (2 Bft) 97,83 %
07.02.2026 10:14 6,4 °C 10,6 °C 2,8 °C 99 % 1003,5 hPa 0,0 l/m² 2 min 0 min 182 W/m² 12,9 km/h (3 Bft) 97,87 %
07.02.2026 10:16 6,5 °C 11,1 °C 2,8 °C 99 % 1003,5 hPa 0,0 l/m² 2 min 0 min 163 W/m² 6,4 km/h (2 Bft) 97,87 %
07.02.2026 10:18 6,6 °C 11,1 °C 2,8 °C 99 % 1003,6 hPa 0,0 l/m² 2 min 0 min 165 W/m² 16,1 km/h (3 Bft) 95,74 %
07.02.2026 10:20 6,7 °C 11,1 °C 2,8 °C 99 % 1003,6 hPa 0,0 l/m² 2 min 0 min 208 W/m² 6,4 km/h (2 Bft) 95,74 %
07.02.2026 10:22 6,7 °C 11,7 °C 2,8 °C 99 % 1003,7 hPa 0,0 l/m² 2 min 0 min 221 W/m² 6,4 km/h (2 Bft) 100,00 %
07.02.2026 10:24 6,8 °C 12,2 °C 2,8 °C 99 % 1003,7 hPa 0,0 l/m² 2 min 0 min 227 W/m² 12,9 km/h (3 Bft) 100,00 %
07.02.2026 10:26 6,9 °C 12,2 °C 2,8 °C 99 % 1003,7 hPa 0,0 l/m² 2 min 0 min 234 W/m² 12,9 km/h (3 Bft) 97,87 %
07.02.2026 10:28 6,9 °C 12,2 °C 2,8 °C 99 % 1003,7 hPa 0,0 l/m² 2 min 0 min 211 W/m² 9,7 km/h (2 Bft) 100,00 %
07.02.2026 10:30 7,1 °C 12,8 °C 2,8 °C 99 % 1003,7 hPa 0,0 l/m² 2 min 0 min 222 W/m² 9,7 km/h (2 Bft) 100,00 %
07.02.2026 10:32 7,1 °C 12,8 °C 2,8 °C 99 % 1003,7 hPa 0,0 l/m² 2 min 0 min 242 W/m² 16,1 km/h (3 Bft) 100,00 %
07.02.2026 10:34 7,2 °C 12,8 °C 3,3 °C 99 % 1003,7 hPa 0,0 l/m² 2 min 0 min 256 W/m² 16,1 km/h (3 Bft) 97,87 %
07.02.2026 10:36 7,3 °C 13,3 °C 3,3 °C 99 % 1003,7 hPa 0,0 l/m² 2 min 0 min 262 W/m² 12,9 km/h (3 Bft) 97,83 %
07.02.2026 10:38 7,3 °C 14,4 °C 3,3 °C 99 % 1003,7 hPa 0,0 l/m² 2 min 0 min 266 W/m² 12,9 km/h (3 Bft) 95,74 %
07.02.2026 10:40 7,3 °C 15,0 °C 3,3 °C 99 % 1003,7 hPa 0,0 l/m² 2 min 0 min 270 W/m² 6,4 km/h (2 Bft) 97,87 %
07.02.2026 10:42 7,4 °C 15,0 °C 3,3 °C 99 % 1003,7 hPa 0,0 l/m² 2 min 0 min 276 W/m² 12,9 km/h (3 Bft) 97,87 %
07.02.2026 10:44 7,6 °C 15,0 °C 3,3 °C 99 % 1003,7 hPa 0,0 l/m² 2 min 0 min 280 W/m² 12,9 km/h (3 Bft) 97,87 %
07.02.2026 10:46 7,6 °C 14,4 °C 3,3 °C 99 % 1003,8 hPa 0,0 l/m² 2 min 0 min 282 W/m² 12,9 km/h (3 Bft) 97,83 %
07.02.2026 10:48 7,7 °C 15,0 °C 3,3 °C 99 % 1003,8 hPa 0,0 l/m² 2 min 0 min 283 W/m² 16,1 km/h (3 Bft) 97,87 %
07.02.2026 10:50 7,7 °C 15,0 °C 3,3 °C 99 % 1003,8 hPa 0,0 l/m² 2 min 0 min 288 W/m² 16,1 km/h (3 Bft) 95,74 %
07.02.2026 10:52 7,8 °C 15,6 °C 3,3 °C 99 % 1003,8 hPa 0,0 l/m² 2 min 0 min 292 W/m² 12,9 km/h (3 Bft) 97,87 %
07.02.2026 10:54 7,8 °C 15,6 °C 3,3 °C 99 % 1003,9 hPa 0,0 l/m² 2 min 0 min 294 W/m² 12,9 km/h (3 Bft) 97,87 %
07.02.2026 10:56 7,9 °C 15,6 °C 3,3 °C 99 % 1003,9 hPa 0,0 l/m² 2 min 0 min 296 W/m² 12,9 km/h (3 Bft) 97,87 %
07.02.2026 10:58 7,9 °C 16,1 °C 3,9 °C 100 % 1003,9 hPa 0,0 l/m² 2 min 0 min 301 W/m² 9,7 km/h (2 Bft) 97,83 %
07.02.2026 11:00 8,1 °C 16,7 °C 3,9 °C 100 % 1003,9 hPa 0,0 l/m² 2 min 0 min 305 W/m² 12,9 km/h (3 Bft) 97,87 %
07.02.2026 11:02 8,1 °C 16,7 °C 3,9 °C 99 % 1003,9 hPa 0,0 l/m² 2 min 0 min 306 W/m² 12,9 km/h (3 Bft) 97,87 %
07.02.2026 11:04 8,2 °C 16,7 °C 3,9 °C 99 % 1003,9 hPa 0,0 l/m² 2 min 0 min 308 W/m² 16,1 km/h (3 Bft) 58,33 %
07.02.2026 11:06 8,2 °C 17,2 °C 3,9 °C 99 % 1003,9 hPa 0,0 l/m² 2 min 0 min 314 W/m² 12,9 km/h (3 Bft) 93,02 %
07.02.2026 11:08 8,3 °C 17,2 °C 3,9 °C 100 % 1004,0 hPa 0,0 l/m² 2 min 0 min 318 W/m² 16,1 km/h (3 Bft) 97,87 %
07.02.2026 11:10 8,4 °C 17,2 °C 3,9 °C 100 % 1004,0 hPa 0,0 l/m² 2 min 0 min 321 W/m² 9,7 km/h (2 Bft) 100,00 %
07.02.2026 11:12 8,4 °C 17,8 °C 3,9 °C 99 % 1004,0 hPa 0,0 l/m² 2 min 0 min 323 W/m² 6,4 km/h (2 Bft) 100,00 %
07.02.2026 11:14 8,6 °C 18,3 °C 4,4 °C 99 % 1003,9 hPa 0,0 l/m² 2 min 0 min 326 W/m² 12,9 km/h (3 Bft) 100,00 %
07.02.2026 11:16 8,6 °C 17,8 °C 4,4 °C 100 % 1004,0 hPa 0,0 l/m² 2 min 0 min 329 W/m² 12,9 km/h (3 Bft) 100,00 %
07.02.2026 11:18 8,7 °C 18,3 °C 4,4 °C 100 % 1003,9 hPa 0,0 l/m² 2 min 0 min 333 W/m² 6,4 km/h (2 Bft) 100,00 %
07.02.2026 11:20 8,8 °C 18,9 °C 4,4 °C 99 % 1003,9 hPa 0,0 l/m² 2 min 0 min 336 W/m² 6,4 km/h (2 Bft) 100,00 %
07.02.2026 11:22 8,8 °C 17,8 °C 4,4 °C 99 % 1003,9 hPa 0,0 l/m² 2 min 0 min 338 W/m² 16,1 km/h (3 Bft) 100,00 %
07.02.2026 11:24 8,9 °C 17,8 °C 4,4 °C 99 % 1004,0 hPa 0,0 l/m² 2 min 0 min 339 W/m² 12,9 km/h (3 Bft) 100,00 %
07.02.2026 11:26 8,9 °C 18,3 °C 4,4 °C 99 % 1004,0 hPa 0,0 l/m² 2 min 0 min 341 W/m² 6,4 km/h (2 Bft) 100,00 %
07.02.2026 11:28 9,1 °C 18,9 °C 4,4 °C 99 % 1004,0 hPa 0,0 l/m² 2 min 0 min 344 W/m² 12,9 km/h (3 Bft) 100,00 %
07.02.2026 11:30 9,1 °C 18,9 °C 4,4 °C 99 % 1003,9 hPa 0,0 l/m² 2 min 0 min 347 W/m² 12,9 km/h (3 Bft) 100,00 %
07.02.2026 11:32 9,2 °C 20,0 °C 4,4 °C 99 % 1003,9 hPa 0,0 l/m² 2 min 0 min 345 W/m² 6,4 km/h (2 Bft) 100,00 %
07.02.2026 11:34 9,3 °C 20,0 °C 4,4 °C 99 % 1003,9 hPa 0,0 l/m² 2 min 0 min 330 W/m² 6,4 km/h (2 Bft) 100,00 %
07.02.2026 11:36 9,3 °C 18,9 °C 4,4 °C 99 % 1004,0 hPa 0,0 l/m² 2 min 0 min 342 W/m² 12,9 km/h (3 Bft) 100,00 %
07.02.2026 11:38 9,4 °C 18,9 °C 4,4 °C 99 % 1004,0 hPa 0,0 l/m² 2 min 0 min 341 W/m² 6,4 km/h (2 Bft) 100,00 %
07.02.2026 11:40 9,4 °C 19,4 °C 4,4 °C 99 % 1004,0 hPa 0,0 l/m² 2 min 0 min 355 W/m² 9,7 km/h (2 Bft) 100,00 %
07.02.2026 11:42 9,6 °C 19,4 °C 4,4 °C 99 % 1004,0 hPa 0,0 l/m² 2 min 0 min 360 W/m² 12,9 km/h (3 Bft) 100,00 %
07.02.2026 11:44 9,7 °C 19,4 °C 5,0 °C 99 % 1004,0 hPa 0,0 l/m² 2 min 0 min 365 W/m² 9,7 km/h (2 Bft) 100,00 %
07.02.2026 11:46 9,7 °C 19,4 °C 5,0 °C 99 % 1004,0 hPa 0,0 l/m² 2 min 0 min 368 W/m² 16,1 km/h (3 Bft) 100,00 %
07.02.2026 11:48 9,8 °C 19,4 °C 4,4 °C 99 % 1004,0 hPa 0,0 l/m² 2 min 0 min 371 W/m² 16,1 km/h (3 Bft) 100,00 %
07.02.2026 11:50 9,9 °C 19,4 °C 5,0 °C 99 % 1004,0 hPa 0,0 l/m² 2 min 0 min 374 W/m² 12,9 km/h (3 Bft) 97,87 %
07.02.2026 11:52 9,9 °C 19,4 °C 5,0 °C 98 % 1004,0 hPa 0,0 l/m² 2 min 0 min 375 W/m² 9,7 km/h (2 Bft) 100,00 %
07.02.2026 11:54 10,1 °C 17,8 °C 5,0 °C 98 % 1004,0 hPa 0,0 l/m² 2 min 0 min 377 W/m² 19,3 km/h (3 Bft) 100,00 %
07.02.2026 11:56 10,1 °C 17,8 °C 5,0 °C 98 % 1004,0 hPa 0,0 l/m² 2 min 0 min 378 W/m² 12,9 km/h (3 Bft) 100,00 %
07.02.2026 11:58 10,2 °C 17,8 °C 5,0 °C 97 % 1004,0 hPa 0,0 l/m² 2 min 0 min 318 W/m² 12,9 km/h (3 Bft) 100,00 %
07.02.2026 12:00 10,2 °C 17,2 °C 5,0 °C 97 % 1004,1 hPa 0,0 l/m² 2 min 0 min 295 W/m² 16,1 km/h (3 Bft) 100,00 %
07.02.2026 12:02 10,3 °C 17,2 °C 5,0 °C 96 % 1004,1 hPa 0,0 l/m² 2 min 0 min 381 W/m² 6,4 km/h (2 Bft) 95,74 %
07.02.2026 12:04 10,4 °C 16,7 °C 5,0 °C 96 % 1004,1 hPa 0,0 l/m² 2 min 0 min 368 W/m² 6,4 km/h (2 Bft) 100,00 %
07.02.2026 12:07 10,5 °C 15,6 °C 5,0 °C 95 % 1004,1 hPa 0,0 l/m² 0 min 0 min 145 W/m² 16,1 km/h (3 Bft) 95,83 %
07.02.2026 12:10 10,6 °C 14,4 °C 5,0 °C 94 % 1004,1 hPa 0,0 l/m² 0 min 0 min 72 W/m² 6,4 km/h (2 Bft) 100,00 %
07.02.2026 12:12 10,6 °C 13,3 °C 5,0 °C 94 % 1004,1 hPa 0,0 l/m² 0 min 0 min 113 W/m² 12,9 km/h (3 Bft) 98,41 %
07.02.2026 12:14 10,6 °C 12,8 °C 5,0 °C 93 % 1004,1 hPa 0,0 l/m² 0 min 0 min 91 W/m² 12,9 km/h (3 Bft) 95,74 %
07.02.2026 12:16 10,6 °C 12,8 °C 4,4 °C 93 % 1004,2 hPa 0,0 l/m² 0 min 0 min 88 W/m² 12,9 km/h (3 Bft) 100,00 %
07.02.2026 12:18 10,6 °C 14,4 °C 5,0 °C 93 % 1004,1 hPa 0,0 l/m² 0 min 0 min 121 W/m² 6,4 km/h (2 Bft) 93,62 %
07.02.2026 12:20 10,7 °C 15,6 °C 5,0 °C 92 % 1004,1 hPa 0,0 l/m² 0 min 0 min 121 W/m² 16,1 km/h (3 Bft) 97,87 %
07.02.2026 12:22 10,8 °C 16,1 °C 5,0 °C 92 % 1004,1 hPa 0,0 l/m² 2 min 0 min 245 W/m² 12,9 km/h (3 Bft) 97,87 %
07.02.2026 12:24 10,8 °C 15,6 °C 5,0 °C 91 % 1004,1 hPa 0,0 l/m² 2 min 0 min 384 W/m² 9,7 km/h (2 Bft) 97,87 %
07.02.2026 12:26 10,9 °C 15,0 °C 5,0 °C 91 % 1004,1 hPa 0,0 l/m² 2 min 0 min 397 W/m² 12,9 km/h (3 Bft) 95,74 %
07.02.2026 12:28 10,9 °C 16,1 °C 5,0 °C 90 % 1004,1 hPa 0,0 l/m² 2 min 0 min 399 W/m² 6,4 km/h (2 Bft) 95,74 %
07.02.2026 12:30 11,0 °C 16,7 °C 5,0 °C 90 % 1004,1 hPa 0,0 l/m² 2 min 0 min 402 W/m² 16,1 km/h (3 Bft) 95,65 %
07.02.2026 12:32 11,1 °C 17,2 °C 5,0 °C 89 % 1004,0 hPa 0,0 l/m² 2 min 0 min 397 W/m² 12,9 km/h (3 Bft) 95,74 %
07.02.2026 12:34 11,1 °C 16,7 °C 5,0 °C 89 % 1004,0 hPa 0,0 l/m² 2 min 0 min 392 W/m² 16,1 km/h (3 Bft) 93,62 %
07.02.2026 12:36 11,2 °C 16,7 °C 5,0 °C 88 % 1004,1 hPa 0,0 l/m² 2 min 0 min 397 W/m² 16,1 km/h (3 Bft) 93,62 %
07.02.2026 12:38 11,3 °C 17,2 °C 5,0 °C 88 % 1004,1 hPa 0,0 l/m² 2 min 0 min 399 W/m² 6,4 km/h (2 Bft) 95,74 %
07.02.2026 12:40 11,3 °C 17,2 °C 5,0 °C 88 % 1004,1 hPa 0,0 l/m² 2 min 0 min 404 W/m² 12,9 km/h (3 Bft) 95,74 %
07.02.2026 12:42 11,4 °C 18,9 °C 5,0 °C 87 % 1004,0 hPa 0,0 l/m² 2 min 0 min 400 W/m² 6,4 km/h (2 Bft) 95,65 %
07.02.2026 12:44 11,6 °C 19,4 °C 5,0 °C 87 % 1004,1 hPa 0,0 l/m² 2 min 0 min 401 W/m² 9,7 km/h (2 Bft) 95,74 %
07.02.2026 12:46 11,6 °C 20,6 °C 5,0 °C 86 % 1004,0 hPa 0,0 l/m² 2 min 0 min 406 W/m² 6,4 km/h (2 Bft) 95,74 %
07.02.2026 12:48 11,7 °C 21,1 °C 5,0 °C 86 % 1004,0 hPa 0,0 l/m² 2 min 0 min 401 W/m² 9,7 km/h (2 Bft) 93,62 %
07.02.2026 12:50 11,8 °C 20,6 °C 5,0 °C 86 % 1004,0 hPa 0,0 l/m² 2 min 0 min 401 W/m² 19,3 km/h (3 Bft) 95,74 %
07.02.2026 12:52 11,9 °C 20,6 °C 5,6 °C 85 % 1004,0 hPa 0,0 l/m² 2 min 0 min 401 W/m² 12,9 km/h (3 Bft) 95,74 %
07.02.2026 12:54 12,0 °C 20,0 °C 5,6 °C 85 % 1004,0 hPa 0,0 l/m² 2 min 0 min 346 W/m² 16,1 km/h (3 Bft) 97,83 %
07.02.2026 12:56 12,1 °C 20,0 °C 6,1 °C 84 % 1004,0 hPa 0,0 l/m² 2 min 0 min 301 W/m² 9,7 km/h (2 Bft) 100,00 %
07.02.2026 12:58 12,1 °C 20,6 °C 6,1 °C 84 % 1004,0 hPa 0,0 l/m² 2 min 0 min 355 W/m² 6,4 km/h (2 Bft) 100,00 %
07.02.2026 13:00 12,2 °C 20,6 °C 6,1 °C 84 % 1004,1 hPa 0,0 l/m² 2 min 0 min 409 W/m² 12,9 km/h (3 Bft) 95,74 %
07.02.2026 13:02 12,2 °C 21,7 °C 6,7 °C 83 % 1004,0 hPa 0,0 l/m² 2 min 0 min 413 W/m² 6,4 km/h (2 Bft) 95,74 %
07.02.2026 13:04 12,3 °C 21,7 °C 6,7 °C 83 % 1004,0 hPa 0,0 l/m² 2 min 0 min 412 W/m² 12,9 km/h (3 Bft) 97,92 %
07.02.2026 13:06 12,4 °C 21,7 °C 6,7 °C 83 % 1004,0 hPa 0,0 l/m² 2 min 0 min 413 W/m² 6,4 km/h (2 Bft) 100,00 %
07.02.2026 13:08 12,5 °C 21,7 °C 6,7 °C 83 % 1004,0 hPa 0,0 l/m² 2 min 0 min 414 W/m² 6,4 km/h (2 Bft) 100,00 %
07.02.2026 13:10 12,6 °C 21,7 °C 6,7 °C 82 % 1004,0 hPa 0,0 l/m² 2 min 0 min 415 W/m² 6,4 km/h (2 Bft) 95,74 %
07.02.2026 13:12 12,7 °C 21,7 °C 6,7 °C 82 % 1004,0 hPa 0,0 l/m² 2 min 0 min 415 W/m² 9,7 km/h (2 Bft) 100,00 %
07.02.2026 13:14 12,8 °C 22,2 °C 7,2 °C 81 % 1004,0 hPa 0,0 l/m² 2 min 0 min 414 W/m² 12,9 km/h (3 Bft) 100,00 %
07.02.2026 13:16 12,9 °C 21,7 °C 7,2 °C 81 % 1004,0 hPa 0,0 l/m² 2 min 0 min 414 W/m² 12,9 km/h (3 Bft) 97,87 %
07.02.2026 13:18 12,9 °C 21,7 °C 7,2 °C 80 % 1004,0 hPa 0,0 l/m² 2 min 0 min 403 W/m² 12,9 km/h (3 Bft) 97,83 %
07.02.2026 13:20 13,0 °C 21,7 °C 7,2 °C 80 % 1004,0 hPa 0,0 l/m² 2 min 0 min 353 W/m² 9,7 km/h (2 Bft) 97,87 %
07.02.2026 13:22 13,1 °C 20,0 °C 7,2 °C 79 % 1004,0 hPa 0,0 l/m² 2 min 0 min 327 W/m² 16,1 km/h (3 Bft) 100,00 %
07.02.2026 13:24 13,1 °C 19,4 °C 7,2 °C 79 % 1004,0 hPa 0,0 l/m² 2 min 0 min 354 W/m² 19,3 km/h (3 Bft) 97,87 %
07.02.2026 13:26 13,1 °C 19,4 °C 7,2 °C 79 % 1004,0 hPa 0,0 l/m² 2 min 0 min 343 W/m² 9,7 km/h (2 Bft) 100,00 %
07.02.2026 13:28 13,1 °C 18,9 °C 7,2 °C 79 % 1004,0 hPa 0,0 l/m² 2 min 0 min 276 W/m² 9,7 km/h (2 Bft) 100,00 %
07.02.2026 13:30 13,1 °C 18,3 °C 7,2 °C 79 % 1004,0 hPa 0,0 l/m² 2 min 0 min 269 W/m² 9,7 km/h (2 Bft) 95,74 %
07.02.2026 13:32 13,1 °C 17,8 °C 7,2 °C 78 % 1004,0 hPa 0,0 l/m² 2 min 0 min 218 W/m² 9,7 km/h (2 Bft) 100,00 %
07.02.2026 13:34 13,1 °C 16,7 °C 6,7 °C 78 % 1004,0 hPa 0,0 l/m² 0 min 0 min 184 W/m² 6,4 km/h (2 Bft) 97,87 %
07.02.2026 13:36 13,1 °C 15,0 °C 6,7 °C 78 % 1004,0 hPa 0,0 l/m² 0 min 0 min 121 W/m² 6,4 km/h (2 Bft) 100,00 %
07.02.2026 13:38 13,1 °C 13,9 °C 6,7 °C 78 % 1004,0 hPa 0,0 l/m² 0 min 0 min 111 W/m² 6,4 km/h (2 Bft) 100,00 %
07.02.2026 13:40 13,0 °C 13,9 °C 6,7 °C 78 % 1004,0 hPa 0,0 l/m² 0 min 0 min 126 W/m² 6,4 km/h (2 Bft) 100,00 %
07.02.2026 13:42 12,9 °C 13,3 °C 6,7 °C 78 % 1004,0 hPa 0,0 l/m² 0 min 0 min 141 W/m² 12,9 km/h (3 Bft) 100,00 %
07.02.2026 13:44 12,8 °C 13,3 °C 6,7 °C 78 % 1004,0 hPa 0,0 l/m² 0 min 0 min 130 W/m² 6,4 km/h (2 Bft) 100,00 %
07.02.2026 13:46 12,8 °C 12,8 °C 6,7 °C 78 % 1003,9 hPa 0,0 l/m² 0 min 0 min 133 W/m² 6,4 km/h (2 Bft) 100,00 %
07.02.2026 13:48 12,7 °C 12,8 °C 6,7 °C 78 % 1003,9 hPa 0,0 l/m² 0 min 0 min 152 W/m² 3,2 km/h (1 Bft) 100,00 %
07.02.2026 13:50 12,7 °C 13,3 °C 6,7 °C 79 % 1003,9 hPa 0,0 l/m² 2 min 0 min 200 W/m² 6,4 km/h (2 Bft) 100,00 %
07.02.2026 13:52 12,6 °C 14,4 °C 6,7 °C 79 % 1003,9 hPa 0,0 l/m² 2 min 0 min 253 W/m² 12,9 km/h (3 Bft) 97,83 %
07.02.2026 13:54 12,6 °C 14,4 °C 6,7 °C 79 % 1003,9 hPa 0,0 l/m² 2 min 0 min 303 W/m² 6,4 km/h (2 Bft) 100,00 %
07.02.2026 13:56 12,6 °C 14,4 °C 6,7 °C 79 % 1003,8 hPa 0,0 l/m² 2 min 0 min 199 W/m² 6,4 km/h (2 Bft) 97,87 %
07.02.2026 13:58 12,5 °C 14,4 °C 6,7 °C 79 % 1003,9 hPa 0,0 l/m² 2 min 0 min 215 W/m² 6,4 km/h (2 Bft) 100,00 %
07.02.2026 14:00 12,4 °C 16,1 °C 6,7 °C 79 % 1003,9 hPa 0,0 l/m² 2 min 0 min 376 W/m² 9,7 km/h (2 Bft) 100,00 %
07.02.2026 14:02 12,5 °C 16,7 °C 7,2 °C 79 % 1004,0 hPa 0,0 l/m² 2 min 0 min 396 W/m² 6,4 km/h (2 Bft) 97,87 %
07.02.2026 14:04 12,6 °C 17,2 °C 7,2 °C 80 % 1003,9 hPa 0,0 l/m² 2 min 0 min 340 W/m² 6,4 km/h (2 Bft) 100,00 %
07.02.2026 14:06 12,6 °C 17,8 °C 7,2 °C 79 % 1003,9 hPa 0,0 l/m² 2 min 0 min 316 W/m² 3,2 km/h (1 Bft) 97,87 %
07.02.2026 14:08 12,6 °C 17,8 °C 7,2 °C 79 % 1003,9 hPa 0,0 l/m² 2 min 0 min 376 W/m² 6,4 km/h (2 Bft) 100,00 %
07.02.2026 14:10 12,7 °C 17,8 °C 7,2 °C 79 % 1004,0 hPa 0,0 l/m² 2 min 0 min 373 W/m² 12,9 km/h (3 Bft) 97,87 %
07.02.2026 14:12 12,7 °C 17,2 °C 7,2 °C 79 % 1004,0 hPa 0,0 l/m² 2 min 0 min 341 W/m² 6,4 km/h (2 Bft) 100,00 %
07.02.2026 14:14 12,8 °C 16,7 °C 7,2 °C 79 % 1004,0 hPa 0,0 l/m² 2 min 0 min 263 W/m² 6,4 km/h (2 Bft) 100,00 %
07.02.2026 14:16 12,8 °C 16,1 °C 7,8 °C 78 % 1004,0 hPa 0,0 l/m² 2 min 0 min 237 W/m² 6,4 km/h (2 Bft) 100,00 %
07.02.2026 14:18 12,8 °C 16,7 °C 7,2 °C 78 % 1004,0 hPa 0,0 l/m² 2 min 0 min 346 W/m² 9,7 km/h (2 Bft) 100,00 %
07.02.2026 14:20 12,9 °C 16,1 °C 7,2 °C 78 % 1004,0 hPa 0,0 l/m² 2 min 0 min 291 W/m² 6,4 km/h (2 Bft) 97,87 %
07.02.2026 14:22 12,9 °C 16,7 °C 7,2 °C 77 % 1004,0 hPa 0,0 l/m² 2 min 0 min 327 W/m² 6,4 km/h (2 Bft) 97,87 %
07.02.2026 14:24 13,0 °C 17,2 °C 7,2 °C 77 % 1004,0 hPa 0,0 l/m² 2 min 0 min 410 W/m² 12,9 km/h (3 Bft) 100,00 %
07.02.2026 14:26 13,1 °C 18,3 °C 7,2 °C 77 % 1004,0 hPa 0,0 l/m² 2 min 0 min 390 W/m² 6,4 km/h (2 Bft) 97,87 %
07.02.2026 14:28 13,2 °C 17,8 °C 7,2 °C 76 % 1004,0 hPa 0,0 l/m² 2 min 0 min 333 W/m² 3,2 km/h (1 Bft) 100,00 %
07.02.2026 14:30 13,2 °C 16,1 °C 7,2 °C 76 % 1004,0 hPa 0,0 l/m² 0 min 0 min 141 W/m² 12,9 km/h (3 Bft) 100,00 %
07.02.2026 14:32 13,3 °C 16,7 °C 7,2 °C 76 % 1004,0 hPa 0,0 l/m² 2 min 0 min 267 W/m² 16,1 km/h (3 Bft) 100,00 %
07.02.2026 14:34 13,3 °C 17,2 °C 7,2 °C 75 % 1004,0 hPa 0,0 l/m² 2 min 0 min 376 W/m² 12,9 km/h (3 Bft) 97,87 %
07.02.2026 14:36 13,4 °C 17,8 °C 7,2 °C 75 % 1004,0 hPa 0,0 l/m² 2 min 0 min 379 W/m² 12,9 km/h (3 Bft) 100,00 %
07.02.2026 14:38 13,4 °C 17,2 °C 7,2 °C 75 % 1004,0 hPa 0,0 l/m² 2 min 0 min 339 W/m² 12,9 km/h (3 Bft) 97,83 %
07.02.2026 14:40 13,4 °C 16,1 °C 7,2 °C 75 % 1004,0 hPa 0,0 l/m² 2 min 0 min 180 W/m² 12,9 km/h (3 Bft) 97,87 %
07.02.2026 14:42 13,5 °C 16,7 °C 7,2 °C 74 % 1004,0 hPa 0,0 l/m² 2 min 0 min 285 W/m² 6,4 km/h (2 Bft) 97,87 %
07.02.2026 14:44 13,5 °C 17,2 °C 7,2 °C 74 % 1004,0 hPa 0,0 l/m² 2 min 0 min 305 W/m² 0,0 km/h (0 Bft) 97,87 %
07.02.2026 14:46 13,6 °C 16,7 °C 7,2 °C 74 % 1004,0 hPa 0,0 l/m² 2 min 0 min 168 W/m² 6,4 km/h (2 Bft) 97,87 %
07.02.2026 14:48 13,6 °C 17,2 °C 7,2 °C 74 % 1004,0 hPa 0,0 l/m² 2 min 0 min 291 W/m² 12,9 km/h (3 Bft) 97,87 %
07.02.2026 14:50 13,6 °C 17,8 °C 7,2 °C 74 % 1004,1 hPa 0,0 l/m² 2 min 0 min 292 W/m² 6,4 km/h (2 Bft) 95,74 %
07.02.2026 14:52 13,7 °C 18,9 °C 7,2 °C 74 % 1004,1 hPa 0,0 l/m² 2 min 0 min 358 W/m² 3,2 km/h (1 Bft) 95,65 %
07.02.2026 14:54 13,8 °C 19,4 °C 7,2 °C 74 % 1004,0 hPa 0,0 l/m² 2 min 0 min 369 W/m² 3,2 km/h (1 Bft) 93,62 %
07.02.2026 14:56 13,8 °C 20,0 °C 7,2 °C 73 % 1004,0 hPa 0,0 l/m² 2 min 0 min 371 W/m² 12,9 km/h (3 Bft) 95,74 %
07.02.2026 14:58 13,9 °C 20,6 °C 7,2 °C 73 % 1004,0 hPa 0,0 l/m² 2 min 0 min 368 W/m² 6,4 km/h (2 Bft) 95,74 %
07.02.2026 15:00 13,9 °C 20,0 °C 7,2 °C 73 % 1004,0 hPa 0,0 l/m² 2 min 0 min 366 W/m² 6,4 km/h (2 Bft) 93,62 %
07.02.2026 15:02 14,1 °C 20,0 °C 7,2 °C 73 % 1004,0 hPa 0,0 l/m² 2 min 0 min 364 W/m² 12,9 km/h (3 Bft) 95,65 %
07.02.2026 15:04 14,1 °C 18,9 °C 7,8 °C 73 % 1004,1 hPa 0,0 l/m² 2 min 0 min 361 W/m² 6,4 km/h (2 Bft) 93,75 %
07.02.2026 15:06 14,2 °C 18,9 °C 7,8 °C 73 % 1004,0 hPa 0,0 l/m² 2 min 0 min 358 W/m² 12,9 km/h (3 Bft) 93,62 %
07.02.2026 15:08 14,2 °C 18,3 °C 7,8 °C 72 % 1004,1 hPa 0,0 l/m² 2 min 0 min 353 W/m² 12,9 km/h (3 Bft) 95,74 %
07.02.2026 15:10 14,3 °C 18,3 °C 7,8 °C 72 % 1004,1 hPa 0,0 l/m² 2 min 0 min 347 W/m² 9,7 km/h (2 Bft) 97,14 %
07.02.2026 15:12 14,3 °C 18,9 °C 7,8 °C 71 % 1004,1 hPa 0,0 l/m² 2 min 0 min 337 W/m² 12,9 km/h (3 Bft) 93,62 %
07.02.2026 15:14 14,3 °C 18,9 °C 7,8 °C 71 % 1004,0 hPa 0,0 l/m² 2 min 0 min 325 W/m² 6,4 km/h (2 Bft) 91,49 %
07.02.2026 15:16 14,3 °C 18,9 °C 7,8 °C 71 % 1003,9 hPa 0,0 l/m² 2 min 0 min 314 W/m² 6,4 km/h (2 Bft) 95,74 %
07.02.2026 15:18 14,3 °C 18,9 °C 7,8 °C 71 % 1004,0 hPa 0,0 l/m² 2 min 0 min 301 W/m² 3,2 km/h (1 Bft) 95,65 %
07.02.2026 15:20 14,4 °C 18,9 °C 7,8 °C 71 % 1004,0 hPa 0,0 l/m² 2 min 0 min 289 W/m² 6,4 km/h (2 Bft) 95,74 %
07.02.2026 15:22 14,4 °C 18,9 °C 7,8 °C 71 % 1004,0 hPa 0,0 l/m² 2 min 0 min 278 W/m² 6,4 km/h (2 Bft) 95,74 %
07.02.2026 15:24 14,4 °C 18,3 °C 7,2 °C 70 % 1004,1 hPa 0,0 l/m² 2 min 0 min 267 W/m² 12,9 km/h (3 Bft) 93,62 %
07.02.2026 15:26 14,4 °C 18,3 °C 7,2 °C 70 % 1004,1 hPa 0,0 l/m² 2 min 0 min 255 W/m² 6,4 km/h (2 Bft) 95,74 %
07.02.2026 15:28 14,5 °C 18,3 °C 7,2 °C 71 % 1004,1 hPa 0,0 l/m² 2 min 0 min 245 W/m² 6,4 km/h (2 Bft) 93,62 %
07.02.2026 15:30 14,5 °C 17,8 °C 7,2 °C 70 % 1004,2 hPa 0,0 l/m² 2 min 0 min 238 W/m² 12,9 km/h (3 Bft) 93,48 %
07.02.2026 15:32 14,5 °C 17,2 °C 7,2 °C 70 % 1004,2 hPa 0,0 l/m² 2 min 0 min 230 W/m² 6,4 km/h (2 Bft) 91,49 %
07.02.2026 15:34 14,6 °C 16,1 °C 7,2 °C 70 % 1004,2 hPa 0,0 l/m² 2 min 0 min 223 W/m² 6,4 km/h (2 Bft) 93,62 %
07.02.2026 15:36 14,6 °C 15,0 °C 7,2 °C 70 % 1004,2 hPa 0,0 l/m² 2 min 0 min 216 W/m² 6,4 km/h (2 Bft) 95,74 %
07.02.2026 15:38 14,6 °C 14,4 °C 7,2 °C 70 % 1004,2 hPa 0,0 l/m² 2 min 0 min 211 W/m² 6,4 km/h (2 Bft) 93,62 %
07.02.2026 15:40 14,5 °C 13,9 °C 7,2 °C 70 % 1004,2 hPa 0,0 l/m² 2 min 0 min 204 W/m² 3,2 km/h (1 Bft) 95,65 %
07.02.2026 15:42 14,5 °C 13,3 °C 7,2 °C 70 % 1004,2 hPa 0,0 l/m² 2 min 0 min 198 W/m² 6,4 km/h (2 Bft) 91,84 %
07.02.2026 15:44 14,4 °C 13,3 °C 7,2 °C 70 % 1004,2 hPa 0,0 l/m² 2 min 0 min 194 W/m² 3,2 km/h (1 Bft) 93,62 %
07.02.2026 15:46 14,4 °C 12,8 °C 7,2 °C 70 % 1004,2 hPa 0,0 l/m² 2 min 0 min 190 W/m² 6,4 km/h (2 Bft) 97,87 %
07.02.2026 15:48 14,4 °C 12,8 °C 7,2 °C 70 % 1004,1 hPa 0,0 l/m² 2 min 0 min 185 W/m² 12,9 km/h (3 Bft) 97,87 %
07.02.2026 15:50 14,4 °C 12,8 °C 7,2 °C 70 % 1004,1 hPa 0,0 l/m² 2 min 0 min 179 W/m² 6,4 km/h (2 Bft) 97,83 %
07.02.2026 15:52 14,4 °C 12,2 °C 7,2 °C 70 % 1004,1 hPa 0,0 l/m² 2 min 0 min 176 W/m² 6,4 km/h (2 Bft) 97,87 %
07.02.2026 15:54 14,3 °C 12,2 °C 7,2 °C 70 % 1004,1 hPa 0,0 l/m² 2 min 0 min 169 W/m² 3,2 km/h (1 Bft) 95,74 %
07.02.2026 15:56 14,3 °C 12,2 °C 7,2 °C 70 % 1004,1 hPa 0,0 l/m² 2 min 0 min 163 W/m² 6,4 km/h (2 Bft) 97,87 %
07.02.2026 15:58 14,2 °C 12,2 °C 7,2 °C 70 % 1004,1 hPa 0,0 l/m² 2 min 0 min 160 W/m² 6,4 km/h (2 Bft) 97,87 %
07.02.2026 16:00 14,1 °C 12,2 °C 7,2 °C 70 % 1004,1 hPa 0,0 l/m² 2 min 0 min 154 W/m² 12,9 km/h (3 Bft) 97,87 %
07.02.2026 16:02 14,1 °C 12,2 °C 6,7 °C 70 % 1004,2 hPa 0,0 l/m² 2 min 0 min 146 W/m² 3,2 km/h (1 Bft) 95,65 %
07.02.2026 16:04 13,9 °C 12,2 °C 6,7 °C 71 % 1004,1 hPa 0,0 l/m² 2 min 0 min 109 W/m² 6,4 km/h (2 Bft) 97,87 %
07.02.2026 16:06 13,9 °C 12,2 °C 6,7 °C 70 % 1004,2 hPa 0,0 l/m² 0 min 0 min 57 W/m² 6,4 km/h (2 Bft) 96,61 %
07.02.2026 16:08 13,8 °C 12,2 °C 6,7 °C 70 % 1004,2 hPa 0,0 l/m² 0 min 0 min 47 W/m² 3,2 km/h (1 Bft) 97,14 %
07.02.2026 16:10 13,7 °C 12,2 °C 7,2 °C 70 % 1004,2 hPa 0,0 l/m² 0 min 0 min 46 W/m² 9,7 km/h (2 Bft) 95,83 %
07.02.2026 16:12 13,6 °C 12,2 °C 6,7 °C 70 % 1004,2 hPa 0,0 l/m² 0 min 0 min 46 W/m² 3,2 km/h (1 Bft) 95,74 %
07.02.2026 16:14 13,6 °C 12,2 °C 6,7 °C 71 % 1004,3 hPa 0,0 l/m² 0 min 0 min 46 W/m² 6,4 km/h (2 Bft) 95,65 %
07.02.2026 16:16 13,5 °C 12,2 °C 6,7 °C 71 % 1004,3 hPa 0,0 l/m² 0 min 0 min 47 W/m² 6,4 km/h (2 Bft) 95,83 %
07.02.2026 16:18 13,4 °C 12,2 °C 6,7 °C 71 % 1004,3 hPa 0,0 l/m² 0 min 0 min 49 W/m² 6,4 km/h (2 Bft) 97,87 %
07.02.2026 16:20 13,4 °C 12,2 °C 6,7 °C 71 % 1004,4 hPa 0,0 l/m² 0 min 0 min 52 W/m² 12,9 km/h (3 Bft) 97,87 %
07.02.2026 16:22 13,3 °C 12,2 °C 6,7 °C 71 % 1004,4 hPa 0,0 l/m² 0 min 0 min 54 W/m² 3,2 km/h (1 Bft) 100,00 %
07.02.2026 16:24 13,3 °C 12,2 °C 6,7 °C 71 % 1004,3 hPa 0,0 l/m² 0 min 0 min 54 W/m² 3,2 km/h (1 Bft) 100,00 %
07.02.2026 16:26 13,2 °C 12,2 °C 6,7 °C 72 % 1004,4 hPa 0,0 l/m² 0 min 0 min 54 W/m² 3,2 km/h (1 Bft) 97,87 %
07.02.2026 16:28 13,2 °C 12,2 °C 6,7 °C 72 % 1004,4 hPa 0,0 l/m² 0 min 0 min 52 W/m² 3,2 km/h (1 Bft) 97,87 %
07.02.2026 16:30 13,2 °C 12,2 °C 6,7 °C 72 % 1004,4 hPa 0,0 l/m² 0 min 0 min 49 W/m² 6,4 km/h (2 Bft) 100,00 %
07.02.2026 16:32 13,1 °C 11,7 °C 6,7 °C 72 % 1004,4 hPa 0,0 l/m² 0 min 0 min 46 W/m² 6,4 km/h (2 Bft) 97,87 %
07.02.2026 16:34 13,1 °C 11,7 °C 6,7 °C 72 % 1004,5 hPa 0,0 l/m² 0 min 0 min 44 W/m² 3,2 km/h (1 Bft) 44,44 %
07.02.2026 16:36 13,0 °C 11,7 °C 6,7 °C 72 % 1004,5 hPa 0,0 l/m² 0 min 0 min 39 W/m² 3,2 km/h (1 Bft) 100,00 %
07.02.2026 16:38 12,9 °C 11,7 °C 6,7 °C 72 % 1004,5 hPa 0,0 l/m² 0 min 0 min 37 W/m² 3,2 km/h (1 Bft) 97,87 %
07.02.2026 16:40 12,9 °C 11,7 °C 6,7 °C 72 % 1004,4 hPa 0,0 l/m² 0 min 0 min 33 W/m² 3,2 km/h (1 Bft) 100,00 %
07.02.2026 16:42 12,9 °C 11,7 °C 6,7 °C 73 % 1004,4 hPa 0,0 l/m² 0 min 0 min 32 W/m² 6,4 km/h (2 Bft) 100,00 %
07.02.2026 16:44 12,8 °C 11,7 °C 6,7 °C 73 % 1004,4 hPa 0,0 l/m² 0 min 0 min 30 W/m² 6,4 km/h (2 Bft) 97,87 %
07.02.2026 16:46 12,8 °C 11,7 °C 6,7 °C 73 % 1004,4 hPa 0,0 l/m² 0 min 0 min 29 W/m² 3,2 km/h (1 Bft) 95,74 %
07.02.2026 16:48 12,8 °C 11,7 °C 6,7 °C 73 % 1004,5 hPa 0,0 l/m² 0 min 0 min 27 W/m² 6,4 km/h (2 Bft) 100,00 %
07.02.2026 16:50 12,7 °C 11,1 °C 6,1 °C 73 % 1004,5 hPa 0,0 l/m² 0 min 0 min 26 W/m² 3,2 km/h (1 Bft) 97,87 %
07.02.2026 16:52 12,7 °C 11,1 °C 6,1 °C 73 % 1004,5 hPa 0,0 l/m² 0 min 0 min 24 W/m² 0,0 km/h (0 Bft) 100,00 %
07.02.2026 16:54 12,6 °C 11,1 °C 6,1 °C 74 % 1004,5 hPa 0,0 l/m² 0 min 0 min 23 W/m² 3,2 km/h (1 Bft) 100,00 %
07.02.2026 16:56 12,6 °C 10,6 °C 5,6 °C 74 % 1004,5 hPa 0,0 l/m² 0 min 0 min 21 W/m² 0,0 km/h (0 Bft) 97,87 %
07.02.2026 16:58 12,6 °C 10,6 °C 5,6 °C 74 % 1004,5 hPa 0,0 l/m² 0 min 0 min 19 W/m² 0,0 km/h (0 Bft) 100,00 %
07.02.2026 17:00 12,5 °C 10,6 °C 5,0 °C 74 % 1004,5 hPa 0,0 l/m² 0 min 0 min 19 W/m² 0,0 km/h (0 Bft) 100,00 %
07.02.2026 17:02 12,4 °C 10,0 °C 5,0 °C 74 % 1004,5 hPa 0,0 l/m² 0 min 0 min 18 W/m² 0,0 km/h (0 Bft) 95,74 %
07.02.2026 17:04 12,4 °C 10,0 °C 5,0 °C 75 % 1004,5 hPa 0,0 l/m² 0 min 0 min 16 W/m² 0,0 km/h (0 Bft) 100,00 %
07.02.2026 17:06 12,3 °C 10,0 °C 5,0 °C 75 % 1004,5 hPa 0,0 l/m² 0 min 0 min 14 W/m² 0,0 km/h (0 Bft) 98,31 %
07.02.2026 17:08 12,3 °C 9,4 °C 4,4 °C 75 % 1004,6 hPa 0,0 l/m² 0 min 0 min 12 W/m² 0,0 km/h (0 Bft) 97,14 %
07.02.2026 17:10 12,2 °C 9,4 °C 4,4 °C 75 % 1004,6 hPa 0,0 l/m² 0 min 0 min 11 W/m² 0,0 km/h (0 Bft) 100,00 %
07.02.2026 17:12 12,2 °C 9,4 °C 4,4 °C 75 % 1004,7 hPa 0,0 l/m² 0 min 0 min 11 W/m² 0,0 km/h (0 Bft) 100,00 %
07.02.2026 17:14 12,1 °C 8,9 °C 4,4 °C 76 % 1004,7 hPa 0,0 l/m² 0 min 0 min 10 W/m² 0,0 km/h (0 Bft) 95,74 %
07.02.2026 17:16 12,0 °C 8,9 °C 3,9 °C 76 % 1004,7 hPa 0,0 l/m² 0 min 0 min 9 W/m² 0,0 km/h (0 Bft) 97,87 %
07.02.2026 17:18 11,9 °C 8,9 °C 3,9 °C 76 % 1004,7 hPa 0,0 l/m² 0 min 0 min 9 W/m² 0,0 km/h (0 Bft) 97,87 %
07.02.2026 17:20 11,8 °C 8,9 °C 3,9 °C 76 % 1004,7 hPa 0,0 l/m² 0 min 0 min 7 W/m² 0,0 km/h (0 Bft) 97,87 %
07.02.2026 17:22 11,7 °C 8,3 °C 3,9 °C 77 % 1004,7 hPa 0,0 l/m² 0 min 0 min 7 W/m² 0,0 km/h (0 Bft) 97,83 %
07.02.2026 17:24 11,6 °C 8,3 °C 3,9 °C 77 % 1004,7 hPa 0,0 l/m² 0 min 0 min 7 W/m² 0,0 km/h (0 Bft) 95,74 %
07.02.2026 17:26 11,5 °C 8,3 °C 3,9 °C 77 % 1004,7 hPa 0,0 l/m² 0 min 0 min 6 W/m² 0,0 km/h (0 Bft) 97,87 %
07.02.2026 17:28 11,4 °C 8,3 °C 3,9 °C 78 % 1004,8 hPa 0,0 l/m² 0 min 0 min 5 W/m² 0,0 km/h (0 Bft) 97,87 %
07.02.2026 17:30 11,3 °C 8,9 °C 3,9 °C 79 % 1004,8 hPa 0,0 l/m² 0 min 0 min 5 W/m² 6,4 km/h (2 Bft) 97,87 %
07.02.2026 17:32 11,1 °C 8,9 °C 4,4 °C 79 % 1004,8 hPa 0,0 l/m² 0 min 0 min 5 W/m² 3,2 km/h (1 Bft) 89,36 %
07.02.2026 17:34 11,1 °C 8,9 °C 4,4 °C 80 % 1004,8 hPa 0,0 l/m² 0 min 0 min 0 W/m² 0,0 km/h (0 Bft) 93,62 %
07.02.2026 17:36 10,9 °C 8,9 °C 4,4 °C 80 % 1004,8 hPa 0,0 l/m² 0 min 0 min 0 W/m² 0,0 km/h (0 Bft) 95,65 %
07.02.2026 17:38 10,9 °C 8,9 °C 4,4 °C 80 % 1004,8 hPa 0,0 l/m² 0 min 0 min 0 W/m² 6,4 km/h (2 Bft) 95,74 %
07.02.2026 17:40 10,8 °C 8,9 °C 4,4 °C 80 % 1004,8 hPa 0,0 l/m² 0 min 0 min 0 W/m² 3,2 km/h (1 Bft) 95,74 %
07.02.2026 17:42 10,7 °C 8,9 °C 4,4 °C 81 % 1004,8 hPa 0,0 l/m² 0 min 0 min 0 W/m² 3,2 km/h (1 Bft) 95,74 %
07.02.2026 17:44 10,7 °C 8,9 °C 4,4 °C 81 % 1004,8 hPa 0,0 l/m² 0 min 0 min 0 W/m² 3,2 km/h (1 Bft) 93,62 %
07.02.2026 17:46 10,6 °C 8,3 °C 4,4 °C 81 % 1004,8 hPa 0,0 l/m² 0 min 0 min 0 W/m² 0,0 km/h (0 Bft) 93,48 %
07.02.2026 17:48 10,5 °C 8,3 °C 3,9 °C 81 % 1004,8 hPa 0,0 l/m² 0 min 0 min 0 W/m² 3,2 km/h (1 Bft) 93,62 %
07.02.2026 17:50 10,4 °C 8,3 °C 3,9 °C 81 % 1004,8 hPa 0,0 l/m² 0 min 0 min 0 W/m² 6,4 km/h (2 Bft) 91,49 %
07.02.2026 17:52 10,3 °C 8,3 °C 3,9 °C 82 % 1004,8 hPa 0,0 l/m² 0 min 0 min 0 W/m² 3,2 km/h (1 Bft) 91,49 %
07.02.2026 17:54 10,3 °C 8,3 °C 3,9 °C 82 % 1004,8 hPa 0,0 l/m² 0 min 0 min 0 W/m² 3,2 km/h (1 Bft) 89,36 %
07.02.2026 17:56 10,2 °C 8,3 °C 3,9 °C 82 % 1004,8 hPa 0,0 l/m² 0 min 0 min 0 W/m² 3,2 km/h (1 Bft) 89,36 %
07.02.2026 17:58 10,2 °C 8,3 °C 3,9 °C 82 % 1004,8 hPa 0,0 l/m² 0 min 0 min 0 W/m² 0,0 km/h (0 Bft) 93,48 %
07.02.2026 18:00 10,2 °C 8,3 °C 3,9 °C 82 % 1004,8 hPa 0,0 l/m² 0 min 0 min 0 W/m² 0,0 km/h (0 Bft) 93,62 %
07.02.2026 18:02 10,1 °C 8,3 °C 3,9 °C 82 % 1004,9 hPa 0,0 l/m² 0 min 0 min 0 W/m² 0,0 km/h (0 Bft) 91,49 %
07.02.2026 18:04 10,1 °C 8,3 °C 3,9 °C 82 % 1004,9 hPa 0,0 l/m² 0 min 0 min 0 W/m² 0,0 km/h (0 Bft) 95,74 %
07.02.2026 18:08 10,0 °C 7,8 °C 3,3 °C 82 % 1004,9 hPa 0,0 l/m² 0 min 0 min 0 W/m² 0,0 km/h (0 Bft) 93,75 %
07.02.2026 18:10 9,9 °C 7,8 °C 3,3 °C 82 % 1005,0 hPa 0,0 l/m² 0 min 0 min 0 W/m² 0,0 km/h (0 Bft) 97,87 %
07.02.2026 18:12 9,9 °C 7,8 °C 3,3 °C 82 % 1005,0 hPa 0,0 l/m² 0 min 0 min 0 W/m² 0,0 km/h (0 Bft) 95,65 %
07.02.2026 18:14 9,9 °C 7,2 °C 3,3 °C 82 % 1005,0 hPa 0,0 l/m² 0 min 0 min 0 W/m² 0,0 km/h (0 Bft) 95,74 %
07.02.2026 18:16 9,8 °C 7,2 °C 2,8 °C 82 % 1005,1 hPa 0,0 l/m² 0 min 0 min 0 W/m² 0,0 km/h (0 Bft) 95,74 %
07.02.2026 18:18 9,8 °C 7,2 °C 2,8 °C 82 % 1005,1 hPa 0,0 l/m² 0 min 0 min 0 W/m² 0,0 km/h (0 Bft) 100,00 %
07.02.2026 18:20 9,8 °C 7,2 °C 2,8 °C 82 % 1005,0 hPa 0,0 l/m² 0 min 0 min 0 W/m² 0,0 km/h (0 Bft) 100,00 %
07.02.2026 18:22 9,7 °C 7,2 °C 2,8 °C 82 % 1005,1 hPa 0,0 l/m² 0 min 0 min 0 W/m² 0,0 km/h (0 Bft) 100,00 %
07.02.2026 18:24 9,6 °C 7,2 °C 2,8 °C 82 % 1005,1 hPa 0,0 l/m² 0 min 0 min 0 W/m² 0,0 km/h (0 Bft) 100,00 %
07.02.2026 18:26 9,6 °C 6,7 °C 2,2 °C 82 % 1005,1 hPa 0,0 l/m² 0 min 0 min 0 W/m² 0,0 km/h (0 Bft) 100,00 %
07.02.2026 18:28 9,6 °C 6,7 °C 2,2 °C 82 % 1005,2 hPa 0,0 l/m² 0 min 0 min 0 W/m² 0,0 km/h (0 Bft) 100,00 %
07.02.2026 18:30 9,5 °C 7,2 °C 2,2 °C 82 % 1005,2 hPa 0,0 l/m² 0 min 0 min 0 W/m² 0,0 km/h (0 Bft) 100,00 %
07.02.2026 18:32 9,4 °C 7,2 °C 2,2 °C 82 % 1005,2 hPa 0,0 l/m² 0 min 0 min 0 W/m² 0,0 km/h (0 Bft) 97,87 %
07.02.2026 18:34 9,4 °C 7,2 °C 2,2 °C 82 % 1005,2 hPa 0,0 l/m² 0 min 0 min 0 W/m² 0,0 km/h (0 Bft) 100,00 %
07.02.2026 18:36 9,3 °C 6,7 °C 2,2 °C 83 % 1005,2 hPa 0,0 l/m² 0 min 0 min 0 W/m² 0,0 km/h (0 Bft) 100,00 %
07.02.2026 18:38 9,3 °C 6,7 °C 2,2 °C 83 % 1005,2 hPa 0,0 l/m² 0 min 0 min 0 W/m² 0,0 km/h (0 Bft) 100,00 %
07.02.2026 18:40 9,2 °C 6,7 °C 2,2 °C 83 % 1005,2 hPa 0,0 l/m² 0 min 0 min 0 W/m² 0,0 km/h (0 Bft) 100,00 %
07.02.2026 18:42 9,2 °C 6,7 °C 2,2 °C 83 % 1005,2 hPa 0,0 l/m² 0 min 0 min 0 W/m² 0,0 km/h (0 Bft) 100,00 %
07.02.2026 18:44 9,1 °C 6,7 °C 2,2 °C 83 % 1005,3 hPa 0,0 l/m² 0 min 0 min 0 W/m² 0,0 km/h (0 Bft) 100,00 %
07.02.2026 18:46 9,1 °C 6,1 °C 2,2 °C 83 % 1005,3 hPa 0,0 l/m² 0 min 0 min 0 W/m² 0,0 km/h (0 Bft) 97,83 %
07.02.2026 18:48 8,9 °C 6,1 °C 2,2 °C 83 % 1005,4 hPa 0,0 l/m² 0 min 0 min 0 W/m² 0,0 km/h (0 Bft) 100,00 %
07.02.2026 18:50 8,9 °C 6,1 °C 1,7 °C 83 % 1005,4 hPa 0,0 l/m² 0 min 0 min 0 W/m² 0,0 km/h (0 Bft) 100,00 %
07.02.2026 18:52 8,8 °C 6,1 °C 1,7 °C 83 % 1005,4 hPa 0,0 l/m² 0 min 0 min 0 W/m² 0,0 km/h (0 Bft) 97,87 %
07.02.2026 18:54 8,8 °C 6,1 °C 1,7 °C 83 % 1005,4 hPa 0,0 l/m² 0 min 0 min 0 W/m² 0,0 km/h (0 Bft) 100,00 %
07.02.2026 18:56 8,7 °C 6,1 °C 1,7 °C 83 % 1005,4 hPa 0,0 l/m² 0 min 0 min 0 W/m² 0,0 km/h (0 Bft) 100,00 %
07.02.2026 18:58 8,7 °C 6,1 °C 1,7 °C 83 % 1005,4 hPa 0,0 l/m² 0 min 0 min 0 W/m² 0,0 km/h (0 Bft) 100,00 %
07.02.2026 19:00 8,6 °C 6,1 °C 1,7 °C 83 % 1005,4 hPa 0,0 l/m² 0 min 0 min 0 W/m² 0,0 km/h (0 Bft) 97,87 %
07.02.2026 19:02 8,6 °C 6,7 °C 1,7 °C 84 % 1005,4 hPa 0,0 l/m² 0 min 0 min 0 W/m² 3,2 km/h (1 Bft) 100,00 %
07.02.2026 19:04 8,5 °C 6,7 °C 1,7 °C 84 % 1005,4 hPa 0,0 l/m² 0 min 0 min 0 W/m² 0,0 km/h (0 Bft) 97,92 %
07.02.2026 19:06 8,4 °C 6,7 °C 2,2 °C 84 % 1005,4 hPa 0,0 l/m² 0 min 0 min 0 W/m² 3,2 km/h (1 Bft) 100,00 %
07.02.2026 19:08 8,4 °C 6,7 °C 2,2 °C 85 % 1005,4 hPa 0,0 l/m² 0 min 0 min 0 W/m² 3,2 km/h (1 Bft) 100,00 %
07.02.2026 19:10 8,4 °C 6,7 °C 2,2 °C 85 % 1005,4 hPa 0,0 l/m² 0 min 0 min 0 W/m² 3,2 km/h (1 Bft) 100,00 %
07.02.2026 19:12 8,3 °C 6,7 °C 2,2 °C 85 % 1005,5 hPa 0,0 l/m² 0 min 0 min 0 W/m² 0,0 km/h (0 Bft) 97,87 %
07.02.2026 19:14 8,3 °C 7,2 °C 2,2 °C 85 % 1005,5 hPa 0,0 l/m² 0 min 0 min 0 W/m² 3,2 km/h (1 Bft) 100,00 %
07.02.2026 19:16 8,3 °C 7,2 °C 2,2 °C 86 % 1005,5 hPa 0,0 l/m² 0 min 0 min 0 W/m² 3,2 km/h (1 Bft) 97,87 %
07.02.2026 19:18 8,3 °C 7,2 °C 2,8 °C 86 % 1005,5 hPa 0,0 l/m² 0 min 0 min 0 W/m² 3,2 km/h (1 Bft) 97,83 %
07.02.2026 19:20 8,3 °C 7,2 °C 2,8 °C 86 % 1005,5 hPa 0,0 l/m² 0 min 0 min 0 W/m² 6,4 km/h (2 Bft) 100,00 %
07.02.2026 19:22 8,2 °C 7,2 °C 2,8 °C 86 % 1005,5 hPa 0,0 l/m² 0 min 0 min 0 W/m² 3,2 km/h (1 Bft) 97,87 %
07.02.2026 19:24 8,2 °C 7,2 °C 2,8 °C 86 % 1005,6 hPa 0,0 l/m² 0 min 0 min 0 W/m² 6,4 km/h (2 Bft) 100,00 %
07.02.2026 19:26 8,2 °C 7,2 °C 2,8 °C 86 % 1005,6 hPa 0,0 l/m² 0 min 0 min 0 W/m² 3,2 km/h (1 Bft) 95,74 %
07.02.2026 19:28 8,2 °C 7,2 °C 2,8 °C 86 % 1005,6 hPa 0,0 l/m² 0 min 0 min 0 W/m² 3,2 km/h (1 Bft) 97,87 %
07.02.2026 19:30 8,2 °C 7,2 °C 3,3 °C 87 % 1005,6 hPa 0,0 l/m² 0 min 0 min 0 W/m² 6,4 km/h (2 Bft) 97,83 %
07.02.2026 19:32 8,2 °C 7,2 °C 2,8 °C 87 % 1005,6 hPa 0,0 l/m² 0 min 0 min 0 W/m² 3,2 km/h (1 Bft) 95,74 %
07.02.2026 19:34 8,2 °C 7,2 °C 2,8 °C 87 % 1005,6 hPa 0,0 l/m² 0 min 0 min 0 W/m² 3,2 km/h (1 Bft) 95,74 %
07.02.2026 19:36 8,1 °C 7,2 °C 2,8 °C 87 % 1005,6 hPa 0,0 l/m² 0 min 0 min 0 W/m² 3,2 km/h (1 Bft) 97,87 %
07.02.2026 19:38 8,2 °C 7,2 °C 2,8 °C 87 % 1005,6 hPa 0,0 l/m² 0 min 0 min 0 W/m² 6,4 km/h (2 Bft) 95,74 %
07.02.2026 19:40 8,1 °C 7,2 °C 2,8 °C 87 % 1005,6 hPa 0,0 l/m² 0 min 0 min 0 W/m² 0,0 km/h (0 Bft) 93,62 %
07.02.2026 19:42 8,1 °C 6,7 °C 2,8 °C 87 % 1005,6 hPa 0,0 l/m² 0 min 0 min 0 W/m² 3,2 km/h (1 Bft) 95,65 %
07.02.2026 19:44 8,1 °C 6,7 °C 2,8 °C 87 % 1005,6 hPa 0,0 l/m² 0 min 0 min 0 W/m² 3,2 km/h (1 Bft) 95,74 %
07.02.2026 19:46 8,1 °C 6,7 °C 2,8 °C 87 % 1005,6 hPa 0,0 l/m² 0 min 0 min 0 W/m² 6,4 km/h (2 Bft) 95,74 %
07.02.2026 19:48 8,1 °C 6,7 °C 2,8 °C 87 % 1005,7 hPa 0,0 l/m² 0 min 0 min 0 W/m² 3,2 km/h (1 Bft) 95,74 %
07.02.2026 19:50 8,1 °C 6,7 °C 2,8 °C 87 % 1005,7 hPa 0,0 l/m² 0 min 0 min 0 W/m² 3,2 km/h (1 Bft) 93,62 %
07.02.2026 19:52 8,0 °C 6,7 °C 2,8 °C 87 % 1005,7 hPa 0,0 l/m² 0 min 0 min 0 W/m² 3,2 km/h (1 Bft) 95,74 %
07.02.2026 19:54 8,0 °C 6,7 °C 2,8 °C 87 % 1005,7 hPa 0,0 l/m² 0 min 0 min 0 W/m² 3,2 km/h (1 Bft) 95,65 %
07.02.2026 19:56 8,0 °C 6,7 °C 2,8 °C 87 % 1005,8 hPa 0,0 l/m² 0 min 0 min 0 W/m² 6,4 km/h (2 Bft) 95,74 %
07.02.2026 19:58 8,0 °C 7,2 °C 2,8 °C 87 % 1005,7 hPa 0,0 l/m² 0 min 0 min 0 W/m² 6,4 km/h (2 Bft) 97,87 %
07.02.2026 20:00 8,0 °C 7,2 °C 2,8 °C 87 % 1005,8 hPa 0,0 l/m² 0 min 0 min 0 W/m² 6,4 km/h (2 Bft) 97,87 %
07.02.2026 20:02 8,0 °C 7,2 °C 2,8 °C 88 % 1005,8 hPa 0,0 l/m² 0 min 0 min 0 W/m² 6,4 km/h (2 Bft) 95,74 %
07.02.2026 20:04 8,0 °C 7,2 °C 2,8 °C 88 % 1005,8 hPa 0,0 l/m² 0 min 0 min 0 W/m² 6,4 km/h (2 Bft) 93,62 %
07.02.2026 20:06 8,1 °C 7,2 °C 2,8 °C 88 % 1005,9 hPa 0,0 l/m² 0 min 0 min 0 W/m² 6,4 km/h (2 Bft) 100,00 %
07.02.2026 20:08 8,0 °C 7,2 °C 2,8 °C 88 % 1005,9 hPa 0,0 l/m² 0 min 0 min 0 W/m² 6,4 km/h (2 Bft) 95,83 %
07.02.2026 20:10 8,0 °C 7,2 °C 2,8 °C 88 % 1005,9 hPa 0,0 l/m² 0 min 0 min 0 W/m² 3,2 km/h (1 Bft) 97,87 %
07.02.2026 20:12 8,0 °C 7,2 °C 2,8 °C 88 % 1005,9 hPa 0,0 l/m² 0 min 0 min 0 W/m² 3,2 km/h (1 Bft) 97,87 %
07.02.2026 20:14 8,0 °C 7,2 °C 2,8 °C 88 % 1005,9 hPa 0,0 l/m² 0 min 0 min 0 W/m² 6,4 km/h (2 Bft) 97,87 %
07.02.2026 20:16 8,1 °C 7,2 °C 2,8 °C 88 % 1005,9 hPa 0,0 l/m² 0 min 0 min 0 W/m² 12,9 km/h (3 Bft) 97,83 %
07.02.2026 20:18 8,1 °C 7,2 °C 2,8 °C 88 % 1005,9 hPa 0,0 l/m² 0 min 0 min 0 W/m² 6,4 km/h (2 Bft) 97,87 %
07.02.2026 20:20 8,1 °C 7,2 °C 3,3 °C 89 % 1005,9 hPa 0,0 l/m² 0 min 0 min 0 W/m² 12,9 km/h (3 Bft) 97,87 %
07.02.2026 20:22 8,1 °C 7,2 °C 3,3 °C 88 % 1005,9 hPa 0,0 l/m² 0 min 0 min 0 W/m² 9,7 km/h (2 Bft) 97,87 %
07.02.2026 20:24 8,1 °C 7,2 °C 3,3 °C 89 % 1006,0 hPa 0,0 l/m² 0 min 0 min 0 W/m² 12,9 km/h (3 Bft) 97,87 %
07.02.2026 20:26 8,1 °C 7,2 °C 3,3 °C 89 % 1006,0 hPa 0,0 l/m² 0 min 0 min 0 W/m² 9,7 km/h (2 Bft) 95,74 %
07.02.2026 20:28 8,1 °C 7,2 °C 3,3 °C 89 % 1006,0 hPa 0,0 l/m² 0 min 0 min 0 W/m² 12,9 km/h (3 Bft) 97,83 %
07.02.2026 20:30 8,1 °C 7,2 °C 3,3 °C 89 % 1006,0 hPa 0,0 l/m² 0 min 0 min 0 W/m² 6,4 km/h (2 Bft) 97,87 %
07.02.2026 20:32 8,1 °C 7,2 °C 3,3 °C 89 % 1006,0 hPa 0,0 l/m² 0 min 0 min 0 W/m² 6,4 km/h (2 Bft) 97,87 %
07.02.2026 20:34 8,1 °C 7,2 °C 3,3 °C 89 % 1006,0 hPa 0,0 l/m² 0 min 0 min 0 W/m² 6,4 km/h (2 Bft) 95,74 %
07.02.2026 20:36 8,1 °C 7,2 °C 2,8 °C 89 % 1006,0 hPa 0,0 l/m² 0 min 0 min 0 W/m² 9,7 km/h (2 Bft) 97,87 %
07.02.2026 20:38 8,1 °C 7,2 °C 2,8 °C 89 % 1006,0 hPa 0,0 l/m² 0 min 0 min 0 W/m² 6,4 km/h (2 Bft) 97,87 %
07.02.2026 20:40 8,1 °C 7,2 °C 2,8 °C 89 % 1006,0 hPa 0,0 l/m² 0 min 0 min 0 W/m² 3,2 km/h (1 Bft) 95,65 %
07.02.2026 20:42 8,1 °C 6,7 °C 2,8 °C 89 % 1006,1 hPa 0,0 l/m² 0 min 0 min 0 W/m² 3,2 km/h (1 Bft) 95,74 %
07.02.2026 20:44 8,1 °C 6,7 °C 2,8 °C 89 % 1006,1 hPa 0,0 l/m² 0 min 0 min 0 W/m² 6,4 km/h (2 Bft) 97,87 %
07.02.2026 20:46 8,1 °C 6,7 °C 2,8 °C 89 % 1006,1 hPa 0,0 l/m² 0 min 0 min 0 W/m² 6,4 km/h (2 Bft) 93,62 %
07.02.2026 20:48 8,0 °C 6,7 °C 2,8 °C 89 % 1006,0 hPa 0,0 l/m² 0 min 0 min 0 W/m² 6,4 km/h (2 Bft) 97,87 %
07.02.2026 20:50 8,0 °C 6,7 °C 2,8 °C 89 % 1006,1 hPa 0,0 l/m² 0 min 0 min 0 W/m² 6,4 km/h (2 Bft) 97,87 %
07.02.2026 20:52 8,0 °C 6,7 °C 2,8 °C 89 % 1006,1 hPa 0,0 l/m² 0 min 0 min 0 W/m² 3,2 km/h (1 Bft) 97,83 %
07.02.2026 20:54 7,9 °C 6,7 °C 2,8 °C 89 % 1006,1 hPa 0,0 l/m² 0 min 0 min 0 W/m² 3,2 km/h (1 Bft) 97,87 %
07.02.2026 20:56 7,9 °C 6,7 °C 2,8 °C 89 % 1006,2 hPa 0,0 l/m² 0 min 0 min 0 W/m² 3,2 km/h (1 Bft) 97,87 %
07.02.2026 20:58 7,9 °C 6,7 °C 2,8 °C 89 % 1006,3 hPa 0,0 l/m² 0 min 0 min 0 W/m² 6,4 km/h (2 Bft) 93,62 %
07.02.2026 21:00 7,9 °C 6,7 °C 2,8 °C 89 % 1006,3 hPa 0,0 l/m² 0 min 0 min 0 W/m² 6,4 km/h (2 Bft) 97,87 %
07.02.2026 21:02 7,8 °C 6,7 °C 2,8 °C 89 % 1006,3 hPa 0,0 l/m² 0 min 0 min 0 W/m² 6,4 km/h (2 Bft) 97,87 %
07.02.2026 21:04 7,8 °C 6,7 °C 2,8 °C 89 % 1006,3 hPa 0,0 l/m² 0 min 0 min 0 W/m² 12,9 km/h (3 Bft) 97,83 %
07.02.2026 21:06 7,8 °C 6,7 °C 2,8 °C 89 % 1006,2 hPa 0,0 l/m² 0 min 0 min 0 W/m² 6,4 km/h (2 Bft) 95,74 %
07.02.2026 21:08 7,8 °C 6,7 °C 2,8 °C 89 % 1006,2 hPa 0,0 l/m² 0 min 0 min 0 W/m² 6,4 km/h (2 Bft) 95,74 %
07.02.2026 21:10 7,8 °C 6,7 °C 2,8 °C 89 % 1006,2 hPa 0,0 l/m² 0 min 0 min 0 W/m² 6,4 km/h (2 Bft) 97,87 %
07.02.2026 21:12 7,7 °C 6,7 °C 2,8 °C 89 % 1006,2 hPa 0,0 l/m² 0 min 0 min 0 W/m² 12,9 km/h (3 Bft) 100,00 %
07.02.2026 21:14 7,7 °C 6,7 °C 2,8 °C 90 % 1006,3 hPa 0,0 l/m² 0 min 0 min 0 W/m² 6,4 km/h (2 Bft) 95,65 %
07.02.2026 21:16 7,7 °C 6,7 °C 2,8 °C 90 % 1006,3 hPa 0,0 l/m² 0 min 0 min 0 W/m² 12,9 km/h (3 Bft) 97,87 %
07.02.2026 21:18 7,7 °C 6,7 °C 2,8 °C 90 % 1006,4 hPa 0,0 l/m² 0 min 0 min 0 W/m² 12,9 km/h (3 Bft) 97,87 %
07.02.2026 21:20 7,7 °C 6,7 °C 2,8 °C 90 % 1006,3 hPa 0,0 l/m² 0 min 0 min 0 W/m² 6,4 km/h (2 Bft) 97,87 %
07.02.2026 21:22 7,7 °C 6,7 °C 2,8 °C 90 % 1006,4 hPa 0,0 l/m² 0 min 0 min 0 W/m² 6,4 km/h (2 Bft) 95,74 %
07.02.2026 21:24 7,6 °C 6,7 °C 2,8 °C 90 % 1006,3 hPa 0,0 l/m² 0 min 0 min 0 W/m² 6,4 km/h (2 Bft) 97,87 %
07.02.2026 21:26 7,6 °C 6,7 °C 2,8 °C 90 % 1006,3 hPa 0,0 l/m² 0 min 0 min 0 W/m² 12,9 km/h (3 Bft) 97,83 %
07.02.2026 21:28 7,6 °C 6,7 °C 2,8 °C 90 % 1006,2 hPa 0,0 l/m² 0 min 0 min 0 W/m² 12,9 km/h (3 Bft) 97,87 %
07.02.2026 21:30 7,6 °C 6,7 °C 2,8 °C 90 % 1006,3 hPa 0,0 l/m² 0 min 0 min 0 W/m² 12,9 km/h (3 Bft) 97,87 %
07.02.2026 21:32 7,5 °C 6,7 °C 2,8 °C 90 % 1006,2 hPa 0,0 l/m² 0 min 0 min 0 W/m² 12,9 km/h (3 Bft) 95,74 %
07.02.2026 21:34 7,5 °C 6,7 °C 2,8 °C 90 % 1006,3 hPa 0,0 l/m² 0 min 0 min 0 W/m² 12,9 km/h (3 Bft) 97,87 %
07.02.2026 21:36 7,4 °C 6,1 °C 2,8 °C 90 % 1006,2 hPa 0,0 l/m² 0 min 0 min 0 W/m² 6,4 km/h (2 Bft) 97,87 %
07.02.2026 21:38 7,4 °C 6,1 °C 2,8 °C 90 % 1006,3 hPa 0,0 l/m² 0 min 0 min 0 W/m² 12,9 km/h (3 Bft) 97,87 %
07.02.2026 21:40 7,4 °C 6,1 °C 2,2 °C 90 % 1006,3 hPa 0,0 l/m² 0 min 0 min 0 W/m² 6,4 km/h (2 Bft) 95,65 %
07.02.2026 21:42 7,3 °C 6,1 °C 2,2 °C 90 % 1006,3 hPa 0,0 l/m² 0 min 0 min 0 W/m² 6,4 km/h (2 Bft) 97,87 %
07.02.2026 21:44 7,3 °C 6,1 °C 2,2 °C 90 % 1006,4 hPa 0,0 l/m² 0 min 0 min 0 W/m² 6,4 km/h (2 Bft) 97,87 %
07.02.2026 21:46 7,3 °C 6,1 °C 2,2 °C 90 % 1006,4 hPa 0,0 l/m² 0 min 0 min 0 W/m² 12,9 km/h (3 Bft) 93,62 %
07.02.2026 21:48 7,3 °C 6,1 °C 2,2 °C 90 % 1006,4 hPa 0,0 l/m² 0 min 0 min 0 W/m² 6,4 km/h (2 Bft) 100,00 %
07.02.2026 21:50 7,3 °C 6,1 °C 2,2 °C 90 % 1006,4 hPa 0,0 l/m² 0 min 0 min 0 W/m² 6,4 km/h (2 Bft) 97,83 %
07.02.2026 21:52 7,2 °C 6,1 °C 2,2 °C 90 % 1006,4 hPa 0,0 l/m² 0 min 0 min 0 W/m² 12,9 km/h (3 Bft) 100,00 %
07.02.2026 21:54 7,2 °C 6,1 °C 2,2 °C 90 % 1006,5 hPa 0,0 l/m² 0 min 0 min 0 W/m² 6,4 km/h (2 Bft) 100,00 %
07.02.2026 21:56 7,2 °C 6,1 °C 2,2 °C 90 % 1006,4 hPa 0,0 l/m² 0 min 0 min 0 W/m² 6,4 km/h (2 Bft) 97,87 %
07.02.2026 21:58 7,2 °C 6,1 °C 2,2 °C 90 % 1006,5 hPa 0,0 l/m² 0 min 0 min 0 W/m² 6,4 km/h (2 Bft) 97,87 %
07.02.2026 22:00 7,1 °C 6,1 °C 2,2 °C 90 % 1006,5 hPa 0,0 l/m² 0 min 0 min 0 W/m² 3,2 km/h (1 Bft) 95,74 %
07.02.2026 22:02 7,1 °C 6,1 °C 2,2 °C 90 % 1006,6 hPa 0,0 l/m² 0 min 0 min 0 W/m² 6,4 km/h (2 Bft) 97,83 %
07.02.2026 22:04 7,1 °C 6,1 °C 2,2 °C 90 % 1006,5 hPa 0,0 l/m² 0 min 0 min 0 W/m² 3,2 km/h (1 Bft) 97,87 %
07.02.2026 22:06 7,1 °C 6,1 °C 2,2 °C 90 % 1006,6 hPa 0,0 l/m² 0 min 0 min 0 W/m² 6,4 km/h (2 Bft) 98,00 %
07.02.2026 22:08 7,1 °C 6,1 °C 2,2 °C 90 % 1006,7 hPa 0,0 l/m² 0 min 0 min 0 W/m² 6,4 km/h (2 Bft) 97,87 %
07.02.2026 22:10 7,1 °C 6,1 °C 2,2 °C 90 % 1006,7 hPa 0,0 l/m² 0 min 0 min 0 W/m² 6,4 km/h (2 Bft) 97,87 %
07.02.2026 22:12 7,1 °C 5,6 °C 2,2 °C 90 % 1006,8 hPa 0,0 l/m² 0 min 0 min 0 W/m² 3,2 km/h (1 Bft) 68,09 %
07.02.2026 22:14 7,0 °C 5,6 °C 2,2 °C 90 % 1006,8 hPa 0,0 l/m² 0 min 0 min 0 W/m² 3,2 km/h (1 Bft) 64,71 %
07.02.2026 22:16 7,0 °C 5,6 °C 2,2 °C 90 % 1006,8 hPa 0,0 l/m² 0 min 0 min 0 W/m² 6,4 km/h (2 Bft) 97,87 %
07.02.2026 22:18 6,9 °C 5,6 °C 2,2 °C 91 % 1006,7 hPa 0,0 l/m² 0 min 0 min 0 W/m² 12,9 km/h (3 Bft) 95,74 %
07.02.2026 22:20 6,9 °C 5,6 °C 2,2 °C 90 % 1006,7 hPa 0,0 l/m² 0 min 0 min 0 W/m² 6,4 km/h (2 Bft) 93,62 %
07.02.2026 22:22 6,9 °C 5,6 °C 2,2 °C 90 % 1006,7 hPa 0,0 l/m² 0 min 0 min 0 W/m² 6,4 km/h (2 Bft) 97,87 %
07.02.2026 22:24 6,9 °C 5,6 °C 2,2 °C 90 % 1006,7 hPa 0,0 l/m² 0 min 0 min 0 W/m² 6,4 km/h (2 Bft) 95,65 %
07.02.2026 22:26 6,9 °C 5,6 °C 2,2 °C 90 % 1006,8 hPa 0,0 l/m² 0 min 0 min 0 W/m² 6,4 km/h (2 Bft) 97,87 %
07.02.2026 22:28 6,8 °C 5,6 °C 2,2 °C 90 % 1006,7 hPa 0,0 l/m² 0 min 0 min 0 W/m² 6,4 km/h (2 Bft) 97,87 %
07.02.2026 22:30 6,8 °C 5,6 °C 2,2 °C 91 % 1006,7 hPa 0,0 l/m² 0 min 0 min 0 W/m² 12,9 km/h (3 Bft) 97,87 %
07.02.2026 22:32 6,8 °C 5,6 °C 2,2 °C 91 % 1006,7 hPa 0,0 l/m² 0 min 0 min 0 W/m² 9,7 km/h (2 Bft) 97,87 %
07.02.2026 22:34 6,8 °C 5,6 °C 2,2 °C 91 % 1006,8 hPa 0,0 l/m² 0 min 0 min 0 W/m² 12,9 km/h (3 Bft) 93,62 %
07.02.2026 22:36 6,7 °C 5,6 °C 2,2 °C 91 % 1006,8 hPa 0,0 l/m² 0 min 0 min 0 W/m² 6,4 km/h (2 Bft) 100,00 %
07.02.2026 22:38 6,7 °C 5,6 °C 2,2 °C 91 % 1006,8 hPa 0,0 l/m² 0 min 0 min 0 W/m² 12,9 km/h (3 Bft) 100,00 %
07.02.2026 22:40 6,7 °C 5,6 °C 2,2 °C 91 % 1006,9 hPa 0,0 l/m² 0 min 0 min 0 W/m² 6,4 km/h (2 Bft) 97,87 %
07.02.2026 22:42 6,7 °C 5,6 °C 2,2 °C 91 % 1006,8 hPa 0,0 l/m² 0 min 0 min 0 W/m² 6,4 km/h (2 Bft) 100,00 %
07.02.2026 22:44 6,7 °C 5,6 °C 2,2 °C 91 % 1006,8 hPa 0,0 l/m² 0 min 0 min 0 W/m² 3,2 km/h (1 Bft) 100,00 %
07.02.2026 22:46 6,6 °C 5,6 °C 1,7 °C 91 % 1006,8 hPa 0,0 l/m² 0 min 0 min 0 W/m² 6,4 km/h (2 Bft) 100,00 %
07.02.2026 22:48 6,6 °C 5,6 °C 1,7 °C 91 % 1006,8 hPa 0,0 l/m² 0 min 0 min 0 W/m² 6,4 km/h (2 Bft) 100,00 %
07.02.2026 22:50 6,6 °C 5,6 °C 1,7 °C 91 % 1006,8 hPa 0,0 l/m² 0 min 0 min 0 W/m² 6,4 km/h (2 Bft) 100,00 %
07.02.2026 22:52 6,6 °C 5,6 °C 1,7 °C 91 % 1006,8 hPa 0,0 l/m² 0 min 0 min 0 W/m² 6,4 km/h (2 Bft) 95,74 %
07.02.2026 22:54 6,6 °C 5,6 °C 1,7 °C 91 % 1006,8 hPa 0,0 l/m² 0 min 0 min 0 W/m² 6,4 km/h (2 Bft) 100,00 %
07.02.2026 22:56 6,5 °C 5,6 °C 1,7 °C 91 % 1006,9 hPa 0,0 l/m² 0 min 0 min 0 W/m² 6,4 km/h (2 Bft) 100,00 %
07.02.2026 22:58 6,5 °C 5,6 °C 1,7 °C 91 % 1006,8 hPa 0,0 l/m² 0 min 0 min 0 W/m² 9,7 km/h (2 Bft) 100,00 %
07.02.2026 23:00 6,5 °C 5,6 °C 1,7 °C 91 % 1006,9 hPa 0,0 l/m² 0 min 0 min 0 W/m² 6,4 km/h (2 Bft) 100,00 %
07.02.2026 23:02 6,5 °C 5,6 °C 1,7 °C 91 % 1006,9 hPa 0,0 l/m² 0 min 0 min 0 W/m² 6,4 km/h (2 Bft) 95,74 %
07.02.2026 23:04 6,4 °C 5,6 °C 1,7 °C 91 % 1006,8 hPa 0,0 l/m² 0 min 0 min 0 W/m² 6,4 km/h (2 Bft) 97,87 %
07.02.2026 23:06 6,4 °C 5,0 °C 1,7 °C 91 % 1006,8 hPa 0,0 l/m² 0 min 0 min 0 W/m² 6,4 km/h (2 Bft) 97,87 %
07.02.2026 23:08 6,4 °C 5,6 °C 1,7 °C 91 % 1006,9 hPa 0,0 l/m² 0 min 0 min 0 W/m² 12,9 km/h (3 Bft) 97,92 %
07.02.2026 23:10 6,4 °C 5,6 °C 1,7 °C 91 % 1006,9 hPa 0,0 l/m² 0 min 0 min 0 W/m² 16,1 km/h (3 Bft) 97,14 %
07.02.2026 23:12 6,3 °C 5,6 °C 1,7 °C 91 % 1006,9 hPa 0,0 l/m² 0 min 0 min 0 W/m² 6,4 km/h (2 Bft) 97,87 %
07.02.2026 23:14 6,3 °C 5,6 °C 1,7 °C 91 % 1006,9 hPa 0,0 l/m² 0 min 0 min 0 W/m² 6,4 km/h (2 Bft) 97,83 %
07.02.2026 23:16 6,3 °C 5,6 °C 1,7 °C 91 % 1006,9 hPa 0,0 l/m² 0 min 0 min 0 W/m² 6,4 km/h (2 Bft) 97,87 %
07.02.2026 23:18 6,3 °C 5,6 °C 1,7 °C 91 % 1006,9 hPa 0,0 l/m² 0 min 0 min 0 W/m² 6,4 km/h (2 Bft) 97,87 %
07.02.2026 23:20 6,3 °C 5,6 °C 1,7 °C 91 % 1007,0 hPa 0,0 l/m² 0 min 0 min 0 W/m² 6,4 km/h (2 Bft) 95,74 %
07.02.2026 23:22 6,3 °C 5,6 °C 1,7 °C 91 % 1007,0 hPa 0,0 l/m² 0 min 0 min 0 W/m² 12,9 km/h (3 Bft) 93,62 %
07.02.2026 23:24 6,2 °C 5,6 °C 1,7 °C 91 % 1007,0 hPa 0,0 l/m² 0 min 0 min 0 W/m² 6,4 km/h (2 Bft) 91,49 %
07.02.2026 23:26 6,2 °C 5,6 °C 1,7 °C 91 % 1007,0 hPa 0,0 l/m² 0 min 0 min 0 W/m² 12,9 km/h (3 Bft) 95,65 %
07.02.2026 23:28 6,2 °C 5,6 °C 1,7 °C 91 % 1007,0 hPa 0,0 l/m² 0 min 0 min 0 W/m² 6,4 km/h (2 Bft) 93,62 %
07.02.2026 23:30 6,2 °C 5,6 °C 1,7 °C 91 % 1007,0 hPa 0,0 l/m² 0 min 0 min 0 W/m² 6,4 km/h (2 Bft) 95,74 %
07.02.2026 23:32 6,2 °C 5,6 °C 1,7 °C 92 % 1007,0 hPa 0,0 l/m² 0 min 0 min 0 W/m² 3,2 km/h (1 Bft) 95,74 %
07.02.2026 23:34 6,2 °C 5,6 °C 1,7 °C 92 % 1007,0 hPa 0,0 l/m² 0 min 0 min 0 W/m² 6,4 km/h (2 Bft) 97,87 %
07.02.2026 23:36 6,2 °C 5,6 °C 1,7 °C 92 % 1007,0 hPa 0,0 l/m² 0 min 0 min 0 W/m² 6,4 km/h (2 Bft) 97,87 %
07.02.2026 23:38 6,2 °C 5,6 °C 1,7 °C 92 % 1007,0 hPa 0,0 l/m² 0 min 0 min 0 W/m² 6,4 km/h (2 Bft) 97,83 %
07.02.2026 23:40 6,2 °C 5,6 °C 1,7 °C 92 % 1007,0 hPa 0,0 l/m² 0 min 0 min 0 W/m² 6,4 km/h (2 Bft) 97,87 %
07.02.2026 23:42 6,2 °C 5,6 °C 1,7 °C 92 % 1007,0 hPa 0,0 l/m² 0 min 0 min 0 W/m² 12,9 km/h (3 Bft) 97,87 %
07.02.2026 23:44 6,2 °C 5,6 °C 1,7 °C 92 % 1007,0 hPa 0,0 l/m² 0 min 0 min 0 W/m² 6,4 km/h (2 Bft) 95,74 %
07.02.2026 23:46 6,2 °C 5,6 °C 1,7 °C 92 % 1007,1 hPa 0,0 l/m² 0 min 0 min 0 W/m² 6,4 km/h (2 Bft) 97,87 %
07.02.2026 23:48 6,2 °C 5,6 °C 1,7 °C 92 % 1007,0 hPa 0,0 l/m² 0 min 0 min 0 W/m² 6,4 km/h (2 Bft) 93,48 %
07.02.2026 23:50 6,2 °C 5,6 °C 1,7 °C 92 % 1007,1 hPa 0,0 l/m² 0 min 0 min 0 W/m² 9,7 km/h (2 Bft) 97,87 %
07.02.2026 23:52 6,2 °C 5,6 °C 1,7 °C 92 % 1007,1 hPa 0,0 l/m² 0 min 0 min 0 W/m² 6,4 km/h (2 Bft) 97,87 %
07.02.2026 23:54 6,2 °C 5,6 °C 1,7 °C 92 % 1007,1 hPa 0,0 l/m² 0 min 0 min 0 W/m² 6,4 km/h (2 Bft) 95,74 %
07.02.2026 23:56 6,2 °C 5,6 °C 1,7 °C 92 % 1007,2 hPa 0,0 l/m² 0 min 0 min 0 W/m² 6,4 km/h (2 Bft) 97,87 %
07.02.2026 23:58 6,2 °C 5,6 °C 1,7 °C 92 % 1007,2 hPa 0,0 l/m² 0 min 0 min 0 W/m² 6,4 km/h (2 Bft) 95,74 %
_ Min-Zeit 07:48 06:28 07:36 15:24 00:00 - - - - 03:10 09:34
Minimum _ 4,6 °C 3,9 °C 0,6 °C 70 % 997,7 hPa - - - - 0,0 km/h (0 Bft) 39,39 %
_ Max-Zeit 15:34 13:14 14:16 10:58 23:56 04:12 10:06 04:12 13:10 11:54 00:00
Maximum _ 14,6 °C 22,2 °C 7,8 °C 100 % 1007,2 hPa 0,2 l/m² 2 min 2 min 415 W/m² 19,3 km/h
S (3 Bft)
100,00 %
Durchschnitt _ 8,1 °C 8,6 °C 3,1 °C 90 % 1003,1 hPa #0,2 l/m² #5:26 h #4 min. 194 W/m² 6,6 km/h (2 Bft) 96,92 %
© 2026 W. Hausmann